Observation data for Adrian on 06/15/2019      Previous  Date  Next       Current Mesonet Observations  Soil Data  Daily Summary Page  Observations in Plain Language
KAD1 150500Z 21019G24KT 26/01 A2982 RMK A01 T02570006  RH  019%=      5-min Rain = 0
KAD1 150501Z 21019KT 26/01 A2982 RMK A01 T02570007  RH  019%=      5-min Rain = 0
KAD1 150502Z 21019KT 26/01 A2981 RMK A01 T02560007  RH  019%=      5-min Rain = 0
KAD1 150503Z 21019KT 26/01 A2982 RMK A01 T02560006  RH  019%=      5-min Rain = 0
KAD1 150504Z 21019KT 26/01 A2982 RMK A01 T02560006  RH  019%=      5-min Rain = 0
KAD1 150505Z 21017KT 26/01 A2982 RMK A01 T02550006  RH  020%=      5-min Rain = 0
KAD1 150506Z 21017G23KT 26/01 A2982 RMK A01 T02550006  RH  020%=      5-min Rain = 0
KAD1 150507Z 21018KT 25/01 A2982 RMK A01 T02540007  RH  020%=      5-min Rain = 0
KAD1 150508Z 21018G23KT 25/01 A2982 RMK A01 T02530007  RH  020%=      5-min Rain = 0
KAD1 150509Z 22017KT 25/01 A2982 RMK A01 T02520007  RH  020%=      5-min Rain = 0
KAD1 150510Z 21018KT 25/01 A2982 RMK A01 T02510007  RH  020%=      5-min Rain = 0
KAD1 150511Z 21018KT 25/01 A2982 RMK A01 T02510006  RH  020%=      5-min Rain = 0
KAD1 150512Z 21019KT 25/01 A2982 RMK A01 T02510007  RH  020%=      5-min Rain = 0
KAD1 150513Z 21019KT 25/01 A2982 RMK A01 T02510007  RH  020%=      5-min Rain = 0
KAD1 150514Z 21019KT 25/01 A2982 RMK A01 T02500006  RH  020%=      5-min Rain = 0
KAD1 150515Z 21018KT 25/01 A2982 RMK A01 T02500007  RH  020%=      5-min Rain = 0
KAD1 150516Z 21018KT 25/01 A2982 RMK A01 T02500007  RH  020%=      5-min Rain = 0
KAD1 150517Z 21017KT 25/01 A2982 RMK A01 T02490007  RH  020%=      5-min Rain = 0
KAD1 150518Z 21018KT 25/01 A2982 RMK A01 T02470007  RH  021%=      5-min Rain = 0
KAD1 150519Z 21019G24KT 25/01 A2982 RMK A01 T02470006  RH  021%=      5-min Rain = 0
KAD1 150520Z 21017KT 25/01 A2982 RMK A01 T02470006  RH  021%=      5-min Rain = 0
KAD1 150521Z 21016G21KT 25/01 A2982 RMK A01 T02460007  RH  021%=      5-min Rain = 0
KAD1 150522Z 21016KT 24/01 A2982 RMK A01 T02440007  RH  021%=      5-min Rain = 0
KAD1 150523Z 21017KT 24/01 A2982 RMK A01 T02440008  RH  021%=      5-min Rain = 0
KAD1 150524Z 21017KT 24/01 A2982 RMK A01 T02420007  RH  021%=      5-min Rain = 0
KAD1 150525Z 21016KT 24/01 A2982 RMK A01 T02420008  RH  021%=      5-min Rain = 0
KAD1 150526Z 21017G22KT 24/01 A2982 RMK A01 T02410008  RH  022%=      5-min Rain = 0
KAD1 150527Z 21018KT 24/01 A2982 RMK A01 T02410008  RH  022%=      5-min Rain = 0
KAD1 150528Z 21016KT 24/01 A2982 RMK A01 T02400008  RH  022%=      5-min Rain = 0
KAD1 150529Z 21016KT 24/01 A2982 RMK A01 T02400008  RH  022%=      5-min Rain = 0
KAD1 150530Z 21017KT 24/01 A2982 RMK A01 T02390008  RH  022%=      5-min Rain = 0
KAD1 150531Z 21018KT 24/01 A2982 RMK A01 T02390007  RH  022%=      5-min Rain = 0
KAD1 150532Z 21017KT 24/01 A2982 RMK A01 T02390007  RH  022%=      5-min Rain = 0
KAD1 150533Z 21015KT 24/01 A2982 RMK A01 T02390007  RH  022%=      5-min Rain = 0
KAD1 150534Z 21017KT 24/01 A2982 RMK A01 T02380008  RH  022%=      5-min Rain = 0
KAD1 150535Z 21015KT 24/01 A2982 RMK A01 T02380008  RH  022%=      5-min Rain = 0
KAD1 150536Z 21016KT 24/01 A2982 RMK A01 T02370009  RH  022%=      5-min Rain = 0
KAD1 150537Z 21015KT 24/01 A2982 RMK A01 T02360008  RH  022%=      5-min Rain = 0
KAD1 150538Z 21015KT 24/01 A2982 RMK A01 T02350009  RH  022%=      5-min Rain = 0
KAD1 150539Z 21016KT 23/01 A2982 RMK A01 T02340009  RH  023%=      5-min Rain = 0
KAD1 150540Z 21017KT 23/01 A2982 RMK A01 T02340009  RH  023%=      5-min Rain = 0
KAD1 150541Z 21017KT 23/01 A2982 RMK A01 T02330008  RH  023%=      5-min Rain = 0
KAD1 150542Z 21016KT 23/01 A2982 RMK A01 T02340008  RH  022%=      5-min Rain = 0
KAD1 150543Z 21016KT 23/01 A2982 RMK A01 T02340008  RH  023%=      5-min Rain = 0
KAD1 150544Z 21016KT 23/01 A2982 RMK A01 T02330008  RH  023%=      5-min Rain = 0
KAD1 150545Z 21017KT 23/01 A2982 RMK A01 T02330007  RH  022%=      5-min Rain = 0
KAD1 150546Z 21016KT 23/01 A2982 RMK A01 T02330007  RH  023%=      5-min Rain = 0
KAD1 150547Z 21017KT 23/01 A2982 RMK A01 T02320008  RH  023%=      5-min Rain = 0
KAD1 150548Z 21017KT 23/01 A2982 RMK A01 T02310008  RH  023%=      5-min Rain = 0
KAD1 150549Z 21016G21KT 23/01 A2982 RMK A01 T02310008  RH  023%=      5-min Rain = 0
KAD1 150550Z 21018KT 23/01 A2982 RMK A01 T02300007  RH  023%=      5-min Rain = 0
KAD1 150551Z 21016KT 23/01 A2982 RMK A01 T02300008  RH  023%=      5-min Rain = 0
KAD1 150552Z 21016KT 23/01 A2982 RMK A01 T02290007  RH  023%=      5-min Rain = 0
KAD1 150553Z 21015KT 23/01 A2982 RMK A01 T02290007  RH  023%=      5-min Rain = 0
KAD1 150554Z 21015KT 23/01 A2982 RMK A01 T02280007  RH  023%=      5-min Rain = 0
KAD1 150555Z 22016KT 23/01 A2982 RMK A01 T02280007  RH  023%=      5-min Rain = 0
KAD1 150556Z 21014G20KT 23/01 A2982 RMK A01 T02280006  RH  023%=      5-min Rain = 0
KAD1 150557Z 22016KT 23/01 A2982 RMK A01 T02280005  RH  023%=      5-min Rain = 0
KAD1 150558Z 22014KT 23/01 A2982 RMK A01 T02300005  RH  023%=      5-min Rain = 0
KAD1 150559Z 22014KT 23/01 A2982 RMK A01 T02300006  RH  023%=      5-min Rain = 0
KAD1 150600Z 24012KT 23/00 A2983 RMK A01 T02290004  RH  023%=      5-min Rain = 0
KAD1 150601Z 27010KT 23/00 A2983 RMK A01 T02300004  RH  022%=      5-min Rain = 0
KAD1 150602Z 28010KT 23/00 A2984 RMK A01 T02300000  RH  022%=      5-min Rain = 0
KAD1 150603Z 30012KT 23/00 A2984 RMK A01 T02330000  RH  021%=      5-min Rain = 0
KAD1 150604Z 31009KT 24/00 A2984 RMK A01 T02370001  RH  021%=      5-min Rain = 0
KAD1 150605Z 30007KT 24/00 A2984 RMK A01 T02380003  RH  021%=      5-min Rain = 0
KAD1 150606Z 27014G22KT 24/M01 A2984 RMK A01 T02381006  RH  020%=      5-min Rain = 0
KAD1 150607Z 27018G25KT 25/M02 A2983 RMK A01 T02501015  RH  017%=      5-min Rain = 0
KAD1 150608Z 23016G21KT 26/M01 A2984 RMK A01 T02621011  RH  017%=      5-min Rain = 0
KAD1 150609Z 25012KT 26/M01 A2983 RMK A01 T02621010  RH  017%=      5-min Rain = 0
KAD1 150610Z 26010KT 26/M01 A2984 RMK A01 T02601009  RH  017%=      5-min Rain = 0
KAD1 150611Z 27015KT 26/M01 A2984 RMK A01 T02571009  RH  017%=      5-min Rain = 0
KAD1 150612Z 30011KT 25/M01 A2984 RMK A01 T02531005  RH  018%=      5-min Rain = 0
KAD1 150613Z 28012KT 25/M00 A2984 RMK A01 T02491001  RH  019%=      5-min Rain = 0
KAD1 150614Z 28010KT 25/M00 A2984 RMK A01 T02461001  RH  020%=      5-min Rain = 0
KAD1 150615Z 27009KT 24/00 A2984 RMK A01 T02430001  RH  020%=      5-min Rain = 0
KAD1 150616Z 27011G19KT 24/00 A2984 RMK A01 T02400001  RH  021%=      5-min Rain = 0
KAD1 150617Z 27014KT 24/M01 A2984 RMK A01 T02391005  RH  020%=      5-min Rain = 0
KAD1 150618Z 28014KT 24/M01 A2984 RMK A01 T02441007  RH  019%=      5-min Rain = 0
KAD1 150619Z 29013KT 25/M00 A2984 RMK A01 T02461003  RH  019%=      5-min Rain = 0
KAD1 150620Z 29012KT 24/00 A2984 RMK A01 T024300-0  RH  020%=      5-min Rain = 0
KAD1 150621Z 28012KT 24/00 A2984 RMK A01 T02400001  RH  021%=      5-min Rain = 0
KAD1 150622Z 28011KT 24/00 A2984 RMK A01 T02380002  RH  021%=      5-min Rain = 0
KAD1 150623Z 28011KT 24/00 A2984 RMK A01 T02350002  RH  021%=      5-min Rain = 0
KAD1 150624Z 27012KT 23/00 A2984 RMK A01 T023400-0  RH  021%=      5-min Rain = 0
KAD1 150625Z 27014KT 24/M00 A2984 RMK A01 T02361002  RH  021%=      5-min Rain = 0
KAD1 150626Z 26014KT 24/M00 A2984 RMK A01 T02381003  RH  020%=      5-min Rain = 0
KAD1 150627Z 26013KT 24/M00 A2984 RMK A01 T02391003  RH  020%=      5-min Rain = 0
KAD1 150628Z 27013KT 24/M00 A2984 RMK A01 T02391003  RH  020%=      5-min Rain = 0
KAD1 150629Z 27013KT 24/M00 A2984 RMK A01 T02391003  RH  020%=      5-min Rain = 0
KAD1 150630Z 27015KT 24/M01 A2984 RMK A01 T02391005  RH  020%=      5-min Rain = 0
KAD1 150631Z 27012KT 24/M01 A2984 RMK A01 T02401005  RH  020%=      5-min Rain = 0
KAD1 150632Z 27012KT 24/M00 A2984 RMK A01 T02401004  RH  020%=      5-min Rain = 0
KAD1 150633Z 26012KT 24/M00 A2984 RMK A01 T02381004  RH  020%=      5-min Rain = 0
KAD1 150634Z 26013KT 24/M00 A2984 RMK A01 T02371004  RH  020%=      5-min Rain = 0
KAD1 150635Z 26012KT 24/M01 A2984 RMK A01 T02371005  RH  020%=      5-min Rain = 0
KAD1 150636Z 26013KT 24/M01 A2984 RMK A01 T02381005  RH  020%=      5-min Rain = 0
KAD1 150637Z 26012KT 24/M01 A2984 RMK A01 T02371005  RH  020%=      5-min Rain = 0
KAD1 150638Z 26012KT 24/M00 A2984 RMK A01 T02361004  RH  020%=      5-min Rain = 0
KAD1 150639Z 25012KT 24/M00 A2984 RMK A01 T02351004  RH  021%=      5-min Rain = 0
KAD1 150640Z 25013KT 23/M00 A2984 RMK A01 T02341004  RH  021%=      5-min Rain = 0
KAD1 150641Z 25013KT 23/M01 A2984 RMK A01 T02341005  RH  021%=      5-min Rain = 0
KAD1 150642Z 25013KT 23/M01 A2984 RMK A01 T02341005  RH  020%=      5-min Rain = 0
KAD1 150643Z 25013KT 23/M01 A2984 RMK A01 T02341005  RH  021%=      5-min Rain = 0
KAD1 150644Z 25013KT 23/M01 A2984 RMK A01 T02341006  RH  020%=      5-min Rain = 0
KAD1 150645Z 25012KT 24/M01 A2984 RMK A01 T02351006  RH  020%=      5-min Rain = 0
KAD1 150646Z 25012KT 23/M01 A2984 RMK A01 T02341005  RH  020%=      5-min Rain = 0
KAD1 150647Z 25012KT 23/M01 A2984 RMK A01 T02331005  RH  021%=      5-min Rain = 0
KAD1 150648Z 26011KT 23/M01 A2984 RMK A01 T02321005  RH  021%=      5-min Rain = 0
KAD1 150649Z 26011KT 23/M01 A2984 RMK A01 T02311005  RH  021%=      5-min Rain = 0
KAD1 150650Z 26011KT 23/M01 A2984 RMK A01 T02301005  RH  021%=      5-min Rain = 0
KAD1 150651Z 26011KT 23/M01 A2984 RMK A01 T02281005  RH  021%=      5-min Rain = 0
KAD1 150652Z 26011KT 23/M01 A2984 RMK A01 T02281005  RH  021%=      5-min Rain = 0
KAD1 150653Z 28010KT 23/M00 A2984 RMK A01 T02271004  RH  022%=      5-min Rain = 0
KAD1 150654Z 28010KT 22/M00 A2984 RMK A01 T02241002  RH  022%=      5-min Rain = 0
KAD1 150655Z 27010KT 22/M00 A2984 RMK A01 T02231003  RH  022%=      5-min Rain = 0
KAD1 150656Z 28011KT 22/M00 A2984 RMK A01 T02231004  RH  022%=      5-min Rain = 0
KAD1 150657Z 28011KT 22/M00 A2984 RMK A01 T02241004  RH  022%=      5-min Rain = 0
KAD1 150658Z 27010KT 22/M00 A2984 RMK A01 T02241004  RH  022%=      5-min Rain = 0
KAD1 150659Z 28010KT 22/M00 A2984 RMK A01 T02241004  RH  022%=      5-min Rain = 0
KAD1 150700Z 28010KT 22/M00 A2984 RMK A01 T02231004  RH  022%=      5-min Rain = 0
KAD1 150701Z 28011KT 22/M00 A2984 RMK A01 T02221002  RH  022%=      5-min Rain = 0
KAD1 150702Z 29011KT 22/M00 A2984 RMK A01 T02191001  RH  023%=      5-min Rain = 0
KAD1 150703Z 29011KT 22/M00 A2984 RMK A01 T02171002  RH  023%=      5-min Rain = 0
KAD1 150704Z 30009KT 22/M00 A2984 RMK A01 T02161002  RH  023%=      5-min Rain = 0
KAD1 150705Z 29008KT 22/00 A2984 RMK A01 T021500-0  RH  024%=      5-min Rain = 0
KAD1 150706Z 30009KT 21/00 A2984 RMK A01 T02130000  RH  024%=      5-min Rain = 0
KAD1 150707Z 30009KT 21/00 A2984 RMK A01 T02110002  RH  025%=      5-min Rain = 0
KAD1 150708Z 30008KT 21/01 A2984 RMK A01 T02090005  RH  026%=      5-min Rain = 0
KAD1 150709Z 31008KT 21/01 A2984 RMK A01 T02070007  RH  026%=      5-min Rain = 0
KAD1 150710Z 31008KT 21/01 A2984 RMK A01 T02060012  RH  027%=      5-min Rain = 0
KAD1 150711Z 31009KT 21/02 A2984 RMK A01 T02050016  RH  028%=      5-min Rain = 0
KAD1 150712Z 32009KT 20/02 A2984 RMK A01 T02030022  RH  030%=      5-min Rain = 0
KAD1 150713Z 32008KT 20/04 A2984 RMK A01 T02010036  RH  034%=      5-min Rain = 0
KAD1 150714Z 30007KT 20/04 A2984 RMK A01 T02000040  RH  035%=      5-min Rain = 0
KAD1 150715Z 30006KT 20/03 A2984 RMK A01 T01990032  RH  033%=      5-min Rain = 0
KAD1 150716Z 30006KT 20/03 A2984 RMK A01 T01980030  RH  033%=      5-min Rain = 0
KAD1 150717Z 29005KT 20/03 A2984 RMK A01 T01970032  RH  034%=      5-min Rain = 0
KAD1 150718Z 30006KT 20/04 A2984 RMK A01 T01950041  RH  036%=      5-min Rain = 0
KAD1 150719Z 30006KT 19/05 A2984 RMK A01 T01940047  RH  038%=      5-min Rain = 0
KAD1 150720Z 31007KT 19/05 A2984 RMK A01 T01920050  RH  039%=      5-min Rain = 0
KAD1 150721Z 31008KT 19/06 A2984 RMK A01 T01900059  RH  042%=      5-min Rain = 0
KAD1 150722Z 31008KT 19/06 A2984 RMK A01 T01890064  RH  044%=      5-min Rain = 0
KAD1 150723Z 30007KT 19/06 A2984 RMK A01 T01890063  RH  044%=      5-min Rain = 0
KAD1 150724Z 30007KT 19/06 A2984 RMK A01 T01890063  RH  044%=      5-min Rain = 0
KAD1 150725Z 29007KT 19/07 A2984 RMK A01 T01890067  RH  045%=      5-min Rain = 0
KAD1 150726Z 29007KT 19/07 A2984 RMK A01 T01880070  RH  046%=      5-min Rain = 0
KAD1 150727Z 29007KT 19/07 A2984 RMK A01 T01880073  RH  047%=      5-min Rain = 0
KAD1 150728Z 31009KT 19/08 A2984 RMK A01 T01870077  RH  049%=      5-min Rain = 0
KAD1 150729Z 32010KT 19/08 A2984 RMK A01 T01850081  RH  050%=      5-min Rain = 0
KAD1 150730Z 32008KT 19/08 A2984 RMK A01 T01850081  RH  051%=      5-min Rain = 0
KAD1 150731Z 31006KT 19/08 A2984 RMK A01 T01860082  RH  051%=      5-min Rain = 0
KAD1 150732Z 30005KT 19/08 A2984 RMK A01 T01870082  RH  051%=      5-min Rain = 0
KAD1 150733Z 29005KT 19/08 A2984 RMK A01 T01870084  RH  051%=      5-min Rain = 0
KAD1 150734Z 29006KT 19/09 A2984 RMK A01 T01860085  RH  052%=      5-min Rain = 0
KAD1 150735Z 31007KT 19/09 A2984 RMK A01 T01850085  RH  052%=      5-min Rain = 0
KAD1 150736Z 32008KT 18/09 A2984 RMK A01 T01830085  RH  053%=      5-min Rain = 0
KAD1 150737Z 31008KT 18/09 A2984 RMK A01 T01820085  RH  053%=      5-min Rain = 0
KAD1 150738Z 31009KT 18/09 A2984 RMK A01 T01810085  RH  053%=      5-min Rain = 0
KAD1 150739Z 31008KT 18/08 A2984 RMK A01 T01820084  RH  053%=      5-min Rain = 0
KAD1 150740Z 31007KT 18/08 A2984 RMK A01 T01820083  RH  052%=      5-min Rain = 0
KAD1 150741Z 32008KT 18/08 A2984 RMK A01 T01830082  RH  052%=      5-min Rain = 0
KAD1 150742Z 31007KT 18/08 A2984 RMK A01 T01830081  RH  052%=      5-min Rain = 0
KAD1 150743Z 30006KT 18/08 A2984 RMK A01 T01830081  RH  052%=      5-min Rain = 0
KAD1 150744Z 30006KT 18/08 A2984 RMK A01 T01830082  RH  052%=      5-min Rain = 0
KAD1 150745Z 29005KT 18/08 A2984 RMK A01 T01820083  RH  052%=      5-min Rain = 0
KAD1 150746Z 30005KT 18/08 A2984 RMK A01 T01820083  RH  053%=      5-min Rain = 0
KAD1 150747Z 31006KT 18/08 A2984 RMK A01 T01800083  RH  053%=      5-min Rain = 0
KAD1 150748Z 30004KT 18/08 A2984 RMK A01 T01780084  RH  054%=      5-min Rain = 0
KAD1 150749Z 29003KT 18/08 A2984 RMK A01 T01770084  RH  054%=      5-min Rain = 0
KAD1 150750Z 27002KT 17/08 A2984 RMK A01 T01740083  RH  055%=      5-min Rain = 0
KAD1 150751Z 28001KT 17/08 A2984 RMK A01 T01690082  RH  056%=      5-min Rain = 0
KAD1 150752Z 31002KT 17/08 A2984 RMK A01 T01670082  RH  057%=      5-min Rain = 0
KAD1 150753Z 34005KT 17/08 A2984 RMK A01 T01650082  RH  058%=      5-min Rain = 0
KAD1 150754Z 01006KT 16/08 A2985 RMK A01 T01640082  RH  058%=      5-min Rain = 0
KAD1 150755Z 06006KT 16/08 A2985 RMK A01 T01580079  RH  059%=      5-min Rain = 0
KAD1 150756Z 10013KT 15/07 A2985 RMK A01 T01500074  RH  060%=      5-min Rain = 0
KAD1 150757Z 10012KT 15/07 A2985 RMK A01 T01510070  RH  058%=      5-min Rain = 0
KAD1 150758Z 11014KT 15/06 A2985 RMK A01 T01530062  RH  055%=      5-min Rain = 0
KAD1 150759Z 12012KT 16/06 A2985 RMK A01 T01560058  RH  052%=      5-min Rain = 0
KAD1 150800Z 10012KT 16/06 A2986 RMK A01 T01600061  RH  052%=      5-min Rain = 0
KAD1 150801Z 08010KT 17/07 A2986 RMK A01 T01660067  RH  052%=      5-min Rain = 0
KAD1 150802Z 08008KT 17/08 A2986 RMK A01 T01680078  RH  056%=      5-min Rain = 0
KAD1 150803Z 09006KT 17/09 A2986 RMK A01 T01720092  RH  059%=      5-min Rain = 0
KAD1 150804Z 10005KT 18/09 A2985 RMK A01 T01750086  RH  056%=      5-min Rain = 0
KAD1 150805Z 10005KT 18/08 A2985 RMK A01 T01760080  RH  053%=      5-min Rain = 0
KAD1 150806Z 11005KT 18/07 A2985 RMK A01 T01760073  RH  051%=      5-min Rain = 0
KAD1 150807Z 11004KT 18/07 A2984 RMK A01 T01760069  RH  049%=      5-min Rain = 0
KAD1 150808Z 11004KT 18/07 A2984 RMK A01 T01750066  RH  049%=      5-min Rain = 0
KAD1 150809Z 11003KT 17/06 A2984 RMK A01 T01740064  RH  049%=      5-min Rain = 0
KAD1 150810Z 14001KT 17/06 A2984 RMK A01 T01720064  RH  049%=      5-min Rain = 0
KAD1 150811Z 15001KT 17/06 A2985 RMK A01 T01710064  RH  049%=      5-min Rain = 0
KAD1 150812Z 07000KT 17/06 A2985 RMK A01 T01700059  RH  048%=      5-min Rain = 0
KAD1 150813Z 00000KT 17/06 A2985 RMK A01 T01710061  RH  048%=      5-min Rain = 0
KAD1 150814Z 35000KT 17/07 A2985 RMK A01 T01700068  RH  051%=      5-min Rain = 0
KAD1 150815Z 14000KT 17/07 A2985 RMK A01 T01680067  RH  051%=      5-min Rain = 0
KAD1 150816Z 14002KT 17/06 A2985 RMK A01 T01680062  RH  049%=      5-min Rain = 0
KAD1 150817Z 14002KT 17/06 A2985 RMK A01 T01690059  RH  048%=      5-min Rain = 0
KAD1 150818Z 12002KT 17/06 A2985 RMK A01 T01700059  RH  048%=      5-min Rain = 0
KAD1 150819Z 07003KT 17/06 A2985 RMK A01 T01700056  RH  047%=      5-min Rain = 0
KAD1 150820Z 02004KT 17/06 A2985 RMK A01 T01700060  RH  048%=      5-min Rain = 0
KAD1 150821Z 01005KT 17/06 A2985 RMK A01 T01680057  RH  048%=      5-min Rain = 0
KAD1 150822Z 01005KT 17/06 A2985 RMK A01 T01660061  RH  050%=      5-min Rain = 0
KAD1 150823Z 01005KT 16/06 A2985 RMK A01 T01620063  RH  052%=      5-min Rain = 0
KAD1 150824Z 01003KT 16/07 A2985 RMK A01 T01590065  RH  054%=      5-min Rain = 0
KAD1 150825Z 35001KT 16/07 A2985 RMK A01 T01580067  RH  054%=      5-min Rain = 0
KAD1 150826Z 28001KT 16/07 A2985 RMK A01 T01580067  RH  055%=      5-min Rain = 0
KAD1 150827Z 29002KT 16/07 A2985 RMK A01 T01560067  RH  055%=      5-min Rain = 0
KAD1 150828Z 29002KT 15/07 A2984 RMK A01 T01540066  RH  056%=      5-min Rain = 0
KAD1 150829Z 29003KT 15/07 A2984 RMK A01 T01540067  RH  056%=      5-min Rain = 0
KAD1 150830Z 29004KT 16/07 A2985 RMK A01 T01550068  RH  056%=      5-min Rain = 0
KAD1 150831Z 29004KT 16/07 A2985 RMK A01 T01550069  RH  057%=      5-min Rain = 0
KAD1 150832Z 28003KT 16/07 A2985 RMK A01 T01570070  RH  056%=      5-min Rain = 0
KAD1 150833Z 30003KT 16/07 A2985 RMK A01 T01580071  RH  056%=      5-min Rain = 0
KAD1 150834Z 33003KT 16/07 A2985 RMK A01 T01580071  RH  056%=      5-min Rain = 0
KAD1 150835Z 33003KT 16/07 A2985 RMK A01 T01580071  RH  056%=      5-min Rain = 0
KAD1 150836Z 32003KT 16/07 A2985 RMK A01 T01590072  RH  056%=      5-min Rain = 0
KAD1 150837Z 32004KT 16/07 A2985 RMK A01 T01580072  RH  056%=      5-min Rain = 0
KAD1 150838Z 33004KT 16/07 A2985 RMK A01 T01570073  RH  057%=      5-min Rain = 0
KAD1 150839Z 33004KT 16/08 A2985 RMK A01 T01600076  RH  057%=      5-min Rain = 0
KAD1 150840Z 31004KT 16/08 A2985 RMK A01 T01620076  RH  057%=      5-min Rain = 0
KAD1 150841Z 32003KT 16/08 A2985 RMK A01 T01640076  RH  056%=      5-min Rain = 0
KAD1 150842Z 30003KT 17/08 A2985 RMK A01 T01660076  RH  056%=      5-min Rain = 0
KAD1 150843Z 29003KT 17/08 A2985 RMK A01 T01660076  RH  055%=      5-min Rain = 0
KAD1 150844Z 31002KT 17/08 A2985 RMK A01 T01660076  RH  055%=      5-min Rain = 0
KAD1 150845Z 32003KT 17/08 A2985 RMK A01 T01660076  RH  055%=      5-min Rain = 0
KAD1 150846Z 33003KT 17/08 A2985 RMK A01 T01660076  RH  055%=      5-min Rain = 0
KAD1 150847Z 32005KT 16/08 A2985 RMK A01 T01640076  RH  056%=      5-min Rain = 0
KAD1 150848Z 32005KT 16/08 A2985 RMK A01 T01630076  RH  056%=      5-min Rain = 0
KAD1 150849Z 33005KT 16/08 A2985 RMK A01 T01630076  RH  057%=      5-min Rain = 0
KAD1 150850Z 32003KT 16/08 A2985 RMK A01 T01610077  RH  057%=      5-min Rain = 0
KAD1 150851Z 27003KT 16/08 A2985 RMK A01 T01600078  RH  058%=      5-min Rain = 0
KAD1 150852Z 27005KT 16/08 A2985 RMK A01 T01580077  RH  059%=      5-min Rain = 0
KAD1 150853Z 29004KT 16/07 A2985 RMK A01 T01580074  RH  057%=      5-min Rain = 0
KAD1 150854Z 30005KT 16/08 A2985 RMK A01 T01620080  RH  058%=      5-min Rain = 0
KAD1 150855Z 31006KT 16/08 A2985 RMK A01 T01620081  RH  059%=      5-min Rain = 0
KAD1 150856Z 32007KT 16/08 A2985 RMK A01 T01580081  RH  060%=      5-min Rain = 0
KAD1 150857Z 33007KT 16/08 A2985 RMK A01 T01550083  RH  062%=      5-min Rain = 0
KAD1 150858Z 33008KT 15/09 A2985 RMK A01 T01530085  RH  064%=      5-min Rain = 0
KAD1 150859Z 33008KT 15/09 A2985 RMK A01 T01530087  RH  065%=      5-min Rain = 0
KAD1 150900Z 33007KT 16/09 A2985 RMK A01 T01550088  RH  064%=      5-min Rain = 0
KAD1 150901Z 32006KT 16/09 A2985 RMK A01 T01550088  RH  064%=      5-min Rain = 0
KAD1 150902Z 32006KT 16/09 A2985 RMK A01 T01550089  RH  065%=      5-min Rain = 0
KAD1 150903Z 33007KT 16/09 A2985 RMK A01 T01550090  RH  065%=      5-min Rain = 0
KAD1 150904Z 33007KT 16/09 A2985 RMK A01 T01550093  RH  066%=      5-min Rain = 0
KAD1 150905Z 32008KT 16/09 A2985 RMK A01 T01560093  RH  066%=      5-min Rain = 0
KAD1 150906Z 32007KT 16/09 A2985 RMK A01 T01560093  RH  066%=      5-min Rain = 0
KAD1 150907Z 33007KT 16/09 A2985 RMK A01 T01560094  RH  066%=      5-min Rain = 0
KAD1 150908Z 33006KT 16/09 A2985 RMK A01 T01560094  RH  067%=      5-min Rain = 0
KAD1 150909Z 32005KT 16/09 A2985 RMK A01 T01550093  RH  066%=      5-min Rain = 0
KAD1 150910Z 32006KT 16/09 A2985 RMK A01 T01550093  RH  067%=      5-min Rain = 0
KAD1 150911Z 34007KT 16/10 A2985 RMK A01 T01550095  RH  068%=      5-min Rain = 0
KAD1 150912Z 33005KT 16/10 A2985 RMK A01 T01550098  RH  069%=      5-min Rain = 0
KAD1 150913Z 34006KT 16/10 A2985 RMK A01 T01570097  RH  067%=      5-min Rain = 0
KAD1 150914Z 33006KT 16/10 A2985 RMK A01 T01560096  RH  068%=      5-min Rain = 0
KAD1 150915Z 34006KT 15/10 A2985 RMK A01 T01540096  RH  069%=      5-min Rain = 0
KAD1 150916Z 34006KT 15/10 A2984 RMK A01 T01520095  RH  069%=      5-min Rain = 0
KAD1 150917Z 33007KT 15/10 A2985 RMK A01 T01510096  RH  070%=      5-min Rain = 0
KAD1 150918Z 33008KT 15/10 A2985 RMK A01 T01500098  RH  071%=      5-min Rain = 0
KAD1 150919Z 32007KT 15/10 A2985 RMK A01 T01500099  RH  072%=      5-min Rain = 0
KAD1 150920Z 32007KT 15/10 A2985 RMK A01 T01500099  RH  071%=      5-min Rain = 0
KAD1 150921Z 32007KT 15/10 A2985 RMK A01 T01500098  RH  071%=      5-min Rain = 0
KAD1 150922Z 33008KT 15/10 A2985 RMK A01 T01500098  RH  071%=      5-min Rain = 0
KAD1 150923Z 33008KT 15/10 A2985 RMK A01 T01490099  RH  072%=      5-min Rain = 0
KAD1 150924Z 33007KT 15/10 A2985 RMK A01 T01500102  RH  073%=      5-min Rain = 0
KAD1 150925Z 33008KT 15/10 A2985 RMK A01 T01500101  RH  073%=      5-min Rain = 0
KAD1 150926Z 33008KT 15/10 A2985 RMK A01 T01500102  RH  073%=      5-min Rain = 0
KAD1 150927Z 33007KT 15/10 A2985 RMK A01 T01500102  RH  073%=      5-min Rain = 0
KAD1 150928Z 33008KT 15/10 A2985 RMK A01 T01500103  RH  073%=      5-min Rain = 0
KAD1 150929Z 33008KT 15/10 A2985 RMK A01 T01500104  RH  074%=      5-min Rain = 0
KAD1 150930Z 33007KT 15/10 A2985 RMK A01 T01490104  RH  074%=      5-min Rain = 0
KAD1 150931Z 33007KT 15/10 A2985 RMK A01 T01500104  RH  074%=      5-min Rain = 0
KAD1 150932Z 33008KT 15/10 A2985 RMK A01 T01490104  RH  074%=      5-min Rain = 0
KAD1 150933Z 33007KT 15/11 A2985 RMK A01 T01490105  RH  075%=      5-min Rain = 0
KAD1 150934Z 33007KT 15/10 A2985 RMK A01 T01480104  RH  075%=      5-min Rain = 0
KAD1 150935Z 33008KT 15/10 A2986 RMK A01 T01470102  RH  075%=      5-min Rain = 0
KAD1 150936Z 33009KT 15/10 A2986 RMK A01 T01460102  RH  075%=      5-min Rain = 0
KAD1 150937Z 33009KT 14/10 A2986 RMK A01 T01440103  RH  076%=      5-min Rain = 0
KAD1 150938Z 34008KT 14/10 A2986 RMK A01 T01440103  RH  076%=      5-min Rain = 0
KAD1 150939Z 34007KT 14/10 A2986 RMK A01 T01440102  RH  076%=      5-min Rain = 0
KAD1 150940Z 34007KT 14/10 A2986 RMK A01 T01430101  RH  076%=      5-min Rain = 0
KAD1 150941Z 34007KT 14/10 A2986 RMK A01 T01420102  RH  077%=      5-min Rain = 0
KAD1 150942Z 34008KT 14/10 A2986 RMK A01 T01410103  RH  078%=      5-min Rain = 0
KAD1 150943Z 34008KT 14/11 A2986 RMK A01 T01400105  RH  079%=      5-min Rain = 0
KAD1 150944Z 35009KT 14/11 A2986 RMK A01 T01390106  RH  080%=      5-min Rain = 0
KAD1 150945Z 35009KT 14/11 A2986 RMK A01 T01390108  RH  081%=      5-min Rain = 0
KAD1 150946Z 35009KT 14/11 A2986 RMK A01 T01390110  RH  082%=      5-min Rain = 0
KAD1 150947Z 35009KT 14/11 A2986 RMK A01 T01410112  RH  083%=      5-min Rain = 0
KAD1 150948Z 35009KT 14/11 A2986 RMK A01 T01430114  RH  083%=      5-min Rain = 0
KAD1 150949Z 36011KT 15/12 A2986 RMK A01 T01450117  RH  083%=      5-min Rain = 0
KAD1 150950Z 34009KT 15/12 A2986 RMK A01 T01490119  RH  082%=      5-min Rain = 0
KAD1 150951Z 34008KT 15/12 A2986 RMK A01 T01500117  RH  081%=      5-min Rain = 0
KAD1 150952Z 33008KT 15/12 A2986 RMK A01 T01500117  RH  081%=      5-min Rain = 0
KAD1 150953Z 33009KT 15/12 A2986 RMK A01 T01490116  RH  081%=      5-min Rain = 0
KAD1 150954Z 34008KT 15/12 A2986 RMK A01 T01480115  RH  081%=      5-min Rain = 0
KAD1 150955Z 35009KT 15/11 A2986 RMK A01 T01460114  RH  081%=      5-min Rain = 0
KAD1 150956Z 35009KT 15/12 A2986 RMK A01 T01450115  RH  082%=      5-min Rain = 0
KAD1 150957Z 35008KT 15/12 A2986 RMK A01 T01450115  RH  082%=      5-min Rain = 0
KAD1 150958Z 34008KT 15/12 A2986 RMK A01 T01450116  RH  083%=      5-min Rain = 0
KAD1 150959Z 34009KT 15/12 A2986 RMK A01 T01450116  RH  083%=      5-min Rain = 0
KAD1 151000Z 34009KT 15/12 A2986 RMK A01 T01450116  RH  083%=      5-min Rain = 0
KAD1 151001Z 34009KT 15/12 A2986 RMK A01 T01450116  RH  083%=      5-min Rain = 0
KAD1 151002Z 34010KT 15/12 A2986 RMK A01 T01450116  RH  083%=      5-min Rain = 0
KAD1 151003Z 34009KT 15/12 A2986 RMK A01 T01450116  RH  083%=      5-min Rain = 0
KAD1 151004Z 34009KT 14/12 A2986 RMK A01 T01440115  RH  083%=      5-min Rain = 0
KAD1 151005Z 34010KT 14/12 A2986 RMK A01 T01440116  RH  083%=      5-min Rain = 0
KAD1 151006Z 33009KT 14/12 A2986 RMK A01 T01440116  RH  083%=      5-min Rain = 0
KAD1 151007Z 33010KT 14/12 A2986 RMK A01 T01440116  RH  083%=      5-min Rain = 0
KAD1 151008Z 33009KT 15/12 A2986 RMK A01 T01450117  RH  083%=      5-min Rain = 0
KAD1 151009Z 33008KT 15/12 A2986 RMK A01 T01450116  RH  083%=      5-min Rain = 0
KAD1 151010Z 33010KT 14/12 A2987 RMK A01 T01440116  RH  083%=      5-min Rain = 0
KAD1 151011Z 33010KT 14/12 A2987 RMK A01 T01440116  RH  083%=      5-min Rain = 0
KAD1 151012Z 32009KT 14/12 A2987 RMK A01 T01440116  RH  083%=      5-min Rain = 0
KAD1 151013Z 32010KT 14/12 A2987 RMK A01 T01440116  RH  083%=      5-min Rain = 0
KAD1 151014Z 33010KT 15/12 A2987 RMK A01 T01450116  RH  083%=      5-min Rain = 0
KAD1 151015Z 33011KT 14/12 A2987 RMK A01 T01440116  RH  083%=      5-min Rain = 0
KAD1 151016Z 33010KT 15/12 A2987 RMK A01 T01450116  RH  083%=      5-min Rain = 0
KAD1 151017Z 34009KT 15/12 A2987 RMK A01 T01460115  RH  082%=      5-min Rain = 0
KAD1 151018Z 34010KT 15/12 A2987 RMK A01 T01450115  RH  082%=      5-min Rain = 0
KAD1 151019Z 33009KT 14/11 A2987 RMK A01 T01440114  RH  082%=      5-min Rain = 0
KAD1 151020Z 34008KT 14/11 A2987 RMK A01 T01430113  RH  082%=      5-min Rain = 0
KAD1 151021Z 33009KT 14/11 A2987 RMK A01 T01420113  RH  083%=      5-min Rain = 0
KAD1 151022Z 34008KT 14/11 A2987 RMK A01 T01420113  RH  083%=      5-min Rain = 0
KAD1 151023Z 34006KT 14/11 A2987 RMK A01 T01410113  RH  083%=      5-min Rain = 0
KAD1 151024Z 34007KT 14/11 A2987 RMK A01 T01400111  RH  083%=      5-min Rain = 0
KAD1 151025Z 33007KT 14/11 A2987 RMK A01 T01380111  RH  084%=      5-min Rain = 0
KAD1 151026Z 33007KT 14/11 A2987 RMK A01 T01380113  RH  085%=      5-min Rain = 0
KAD1 151027Z 34007KT 14/11 A2987 RMK A01 T01380112  RH  084%=      5-min Rain = 0
KAD1 151028Z 34007KT 14/11 A2987 RMK A01 T01390113  RH  085%=      5-min Rain = 0
KAD1 151029Z 34007KT 14/11 A2987 RMK A01 T01390113  RH  084%=      5-min Rain = 0
KAD1 151030Z 34007KT 14/11 A2987 RMK A01 T01390114  RH  085%=      5-min Rain = 0
KAD1 151031Z 33007KT 14/11 A2988 RMK A01 T01400114  RH  084%=      5-min Rain = 0
KAD1 151032Z 33008KT 14/11 A2988 RMK A01 T01400114  RH  084%=      5-min Rain = 0
KAD1 151033Z 33008KT 14/11 A2988 RMK A01 T01400114  RH  085%=      5-min Rain = 0
KAD1 151034Z 32008KT 14/11 A2988 RMK A01 T01400114  RH  084%=      5-min Rain = 0
KAD1 151035Z 32008KT 14/11 A2988 RMK A01 T01400114  RH  084%=      5-min Rain = 0
KAD1 151036Z 32008KT 14/11 A2988 RMK A01 T01400113  RH  084%=      5-min Rain = 0
KAD1 151037Z 32007KT 14/11 A2988 RMK A01 T01400114  RH  084%=      5-min Rain = 0
KAD1 151038Z 32007KT 14/11 A2988 RMK A01 T01390113  RH  084%=      5-min Rain = 0
KAD1 151039Z 32006KT 14/11 A2988 RMK A01 T01390113  RH  085%=      5-min Rain = 0
KAD1 151040Z 32008KT 14/11 A2988 RMK A01 T01380113  RH  085%=      5-min Rain = 0
KAD1 151041Z 32008KT 14/11 A2988 RMK A01 T01380113  RH  085%=      5-min Rain = 0
KAD1 151042Z 31008KT 14/11 A2988 RMK A01 T01380113  RH  085%=      5-min Rain = 0
KAD1 151043Z 31008KT 14/11 A2988 RMK A01 T01380113  RH  085%=      5-min Rain = 0
KAD1 151044Z 31008KT 14/11 A2988 RMK A01 T01370112  RH  085%=      5-min Rain = 0
KAD1 151045Z 32008KT 14/11 A2988 RMK A01 T01360112  RH  085%=      5-min Rain = 0
KAD1 151046Z 32008KT 14/11 A2988 RMK A01 T01360113  RH  086%=      5-min Rain = 0
KAD1 151047Z 33008KT 14/11 A2988 RMK A01 T01360113  RH  086%=      5-min Rain = 0
KAD1 151048Z 33008KT 14/11 A2988 RMK A01 T01360113  RH  086%=      5-min Rain = 0
KAD1 151049Z 33008KT 14/11 A2988 RMK A01 T01360113  RH  086%=      5-min Rain = 0
KAD1 151050Z 33007KT 14/11 A2988 RMK A01 T01360113  RH  086%=      5-min Rain = 0
KAD1 151051Z 32007KT 14/11 A2988 RMK A01 T01350112  RH  086%=      5-min Rain = 0
KAD1 151052Z 32008KT 14/11 A2988 RMK A01 T01350112  RH  086%=      5-min Rain = 0
KAD1 151053Z 32007KT 14/11 A2988 RMK A01 T01350112  RH  086%=      5-min Rain = 0
KAD1 151054Z 33008KT 13/11 A2989 RMK A01 T01340112  RH  086%=      5-min Rain = 0
KAD1 151055Z 32008KT 13/11 A2989 RMK A01 T01330112  RH  087%=      5-min Rain = 0
KAD1 151056Z 33009KT 13/11 A2989 RMK A01 T01340113  RH  087%=      5-min Rain = 0
KAD1 151057Z 33009KT 14/11 A2989 RMK A01 T01350114  RH  087%=      5-min Rain = 0
KAD1 151058Z 33008KT 14/11 A2989 RMK A01 T01370114  RH  086%=      5-min Rain = 0
KAD1 151059Z 32008KT 14/11 A2989 RMK A01 T01370113  RH  085%=      5-min Rain = 0
KAD1 151100Z 32008KT 14/11 A2989 RMK A01 T01360112  RH  086%=      5-min Rain = 0
KAD1 151101Z 32008KT 14/11 A2989 RMK A01 T01350113  RH  086%=      5-min Rain = 0
KAD1 151102Z 32008KT 14/11 A2989 RMK A01 T01350113  RH  086%=      5-min Rain = 0
KAD1 151103Z 32008KT 14/11 A2989 RMK A01 T01350113  RH  086%=      5-min Rain = 0
KAD1 151104Z 32008KT 13/11 A2989 RMK A01 T01340113  RH  087%=      5-min Rain = 0
KAD1 151105Z 32008KT 14/11 A2989 RMK A01 T01350113  RH  086%=      5-min Rain = 0
KAD1 151106Z 32008KT 14/11 A2989 RMK A01 T01350112  RH  086%=      5-min Rain = 0
KAD1 151107Z 32009KT 14/11 A2989 RMK A01 T01350113  RH  086%=      5-min Rain = 0
KAD1 151108Z 32009KT 14/11 A2989 RMK A01 T01350113  RH  086%=      5-min Rain = 0
KAD1 151109Z 32010KT 14/11 A2989 RMK A01 T01350113  RH  087%=      5-min Rain = 0
KAD1 151110Z 32010KT 14/11 A2989 RMK A01 T01360113  RH  086%=      5-min Rain = 0
KAD1 151111Z 32009KT 14/11 A2989 RMK A01 T01360113  RH  086%=      5-min Rain = 0
KAD1 151112Z 32009KT 14/11 A2989 RMK A01 T01350112  RH  086%=      5-min Rain = 0
KAD1 151113Z 32009KT 14/11 A2989 RMK A01 T01350112  RH  086%=      5-min Rain = 0
KAD1 151114Z 32008KT 13/11 A2989 RMK A01 T01340112  RH  086%=      5-min Rain = 0
KAD1 151115Z 32008KT 13/11 A2989 RMK A01 T01340112  RH  086%=      5-min Rain = 0
KAD1 151116Z 32007KT 13/11 A2989 RMK A01 T01330111  RH  087%=      5-min Rain = 0
KAD1 151117Z 32007KT 13/11 A2989 RMK A01 T01330111  RH  087%=      5-min Rain = 0
KAD1 151118Z 32007KT 13/11 A2989 RMK A01 T01320111  RH  087%=      5-min Rain = 0
KAD1 151119Z 32007KT 13/11 A2989 RMK A01 T01320112  RH  087%=      5-min Rain = 0
KAD1 151120Z 32006KT 13/11 A2989 RMK A01 T01320111  RH  087%=      5-min Rain = 0
KAD1 151121Z 32007KT 13/11 A2989 RMK A01 T01320111  RH  087%=      5-min Rain = 0
KAD1 151122Z 32007KT 13/11 A2989 RMK A01 T01330112  RH  087%=      5-min Rain = 0
KAD1 151123Z 33007KT 13/11 A2989 RMK A01 T01330112  RH  087%=      5-min Rain = 0
KAD1 151124Z 33007KT 13/11 A2989 RMK A01 T01340112  RH  087%=      5-min Rain = 0
KAD1 151125Z 32008KT 13/11 A2989 RMK A01 T01340112  RH  087%=      5-min Rain = 0
KAD1 151126Z 32007KT 14/11 A2989 RMK A01 T01350113  RH  086%=      5-min Rain = 0
KAD1 151127Z 32008KT 14/11 A2989 RMK A01 T01350113  RH  086%=      5-min Rain = 0
KAD1 151128Z 32006KT 14/11 A2989 RMK A01 T01350112  RH  086%=      5-min Rain = 0
KAD1 151129Z 32007KT 14/11 A2989 RMK A01 T01350112  RH  086%=      5-min Rain = 0
KAD1 151130Z 32008KT 14/11 A2989 RMK A01 T01350113  RH  086%=      5-min Rain = 0
KAD1 151131Z 32008KT 14/11 A2989 RMK A01 T01350113  RH  087%=      5-min Rain = 0
KAD1 151132Z 32009KT 14/11 A2989 RMK A01 T01350113  RH  086%=      5-min Rain = 0
KAD1 151133Z 32009KT 14/11 A2989 RMK A01 T01360113  RH  086%=      5-min Rain = 0
KAD1 151134Z 32008KT 14/11 A2989 RMK A01 T01370114  RH  086%=      5-min Rain = 0
KAD1 151135Z 32008KT 14/11 A2989 RMK A01 T01370114  RH  086%=      5-min Rain = 0
KAD1 151136Z 32008KT 14/11 A2989 RMK A01 T01370113  RH  085%=      5-min Rain = 0
KAD1 151137Z 32008KT 14/11 A2989 RMK A01 T01370113  RH  085%=      5-min Rain = 0
KAD1 151138Z 32009KT 14/11 A2989 RMK A01 T01370113  RH  086%=      5-min Rain = 0
KAD1 151139Z 32008KT 14/11 A2989 RMK A01 T01360113  RH  086%=      5-min Rain = 0
KAD1 151140Z 32008KT 14/11 A2989 RMK A01 T01360113  RH  086%=      5-min Rain = 0
KAD1 151141Z 32008KT 14/11 A2989 RMK A01 T01360113  RH  086%=      5-min Rain = 0
KAD1 151142Z 32008KT 14/11 A2989 RMK A01 T01360113  RH  086%=      5-min Rain = 0
KAD1 151143Z 32008KT 14/11 A2989 RMK A01 T01360113  RH  086%=      5-min Rain = 0
KAD1 151144Z 32008KT 14/11 A2989 RMK A01 T01360113  RH  086%=      5-min Rain = 0
KAD1 151145Z 32007KT 14/11 A299 RMK A01 T01360113  RH  086%=      5-min Rain = 0
KAD1 151146Z 32008KT 14/11 A299 RMK A01 T01360113  RH  086%=      5-min Rain = 0
KAD1 151147Z 31008KT 14/11 A299 RMK A01 T01360113  RH  086%=      5-min Rain = 0
KAD1 151148Z 32007KT 14/11 A299 RMK A01 T01360113  RH  086%=      5-min Rain = 0
KAD1 151149Z 32007KT 14/11 A299 RMK A01 T01360113  RH  086%=      5-min Rain = 0
KAD1 151150Z 32007KT 14/11 A299 RMK A01 T01360113  RH  086%=      5-min Rain = 0
KAD1 151151Z 32008KT 14/11 A299 RMK A01 T01370113  RH  086%=      5-min Rain = 0
KAD1 151152Z 32008KT 14/11 A299 RMK A01 T01370113  RH  085%=      5-min Rain = 0
KAD1 151153Z 32007KT 14/11 A299 RMK A01 T01380113  RH  085%=      5-min Rain = 0
KAD1 151154Z 32007KT 14/11 A299 RMK A01 T01370112  RH  085%=      5-min Rain = 0
KAD1 151155Z 32007KT 14/11 A299 RMK A01 T01370113  RH  085%=      5-min Rain = 0
KAD1 151156Z 32008KT 14/11 A299 RMK A01 T01370112  RH  085%=      5-min Rain = 0
KAD1 151157Z 32008KT 14/11 A299 RMK A01 T01370112  RH  085%=      5-min Rain = 0
KAD1 151158Z 33008KT 14/11 A299 RMK A01 T01370113  RH  085%=      5-min Rain = 0
KAD1 151159Z 33008KT 14/11 A299 RMK A01 T01380113  RH  085%=      5-min Rain = 0
KAD1 151200Z 32008KT 14/11 A299 RMK A01 T01380113  RH  085%=      5-min Rain = 0
KAD1 151201Z 32007KT 14/11 A299 RMK A01 T01380112  RH  084%=      5-min Rain = 0
KAD1 151202Z 32007KT 14/11 A299 RMK A01 T01380112  RH  084%=      5-min Rain = 0
KAD1 151203Z 32007KT 14/11 A299 RMK A01 T01380112  RH  084%=      5-min Rain = 0
KAD1 151204Z 32007KT 14/11 A299 RMK A01 T01380112  RH  084%=      5-min Rain = 0
KAD1 151205Z 32007KT 14/11 A299 RMK A01 T01380112  RH  084%=      5-min Rain = 0
KAD1 151206Z 33007KT 14/11 A299 RMK A01 T01390112  RH  084%=      5-min Rain = 0
KAD1 151207Z 32007KT 14/11 A299 RMK A01 T01380112  RH  084%=      5-min Rain = 0
KAD1 151208Z 32007KT 14/11 A299 RMK A01 T01390112  RH  084%=      5-min Rain = 0
KAD1 151209Z 31007KT 14/11 A299 RMK A01 T01390112  RH  084%=      5-min Rain = 0
KAD1 151210Z 31008KT 14/11 A299 RMK A01 T01400112  RH  083%=      5-min Rain = 0
KAD1 151211Z 31007KT 14/11 A2991 RMK A01 T01400112  RH  083%=      5-min Rain = 0
KAD1 151212Z 32007KT 14/11 A2991 RMK A01 T01400112  RH  083%=      5-min Rain = 0
KAD1 151213Z 32007KT 14/11 A2991 RMK A01 T01410112  RH  083%=      5-min Rain = 0
KAD1 151214Z 31007KT 14/11 A2991 RMK A01 T01410112  RH  083%=      5-min Rain = 0
KAD1 151215Z 31006KT 14/11 A2991 RMK A01 T01410112  RH  083%=      5-min Rain = 0
KAD1 151216Z 31005KT 14/11 A299 RMK A01 T01410112  RH  083%=      5-min Rain = 0
KAD1 151217Z 31006KT 14/11 A2991 RMK A01 T01420113  RH  083%=      5-min Rain = 0
KAD1 151218Z 32007KT 14/11 A2991 RMK A01 T01420113  RH  082%=      5-min Rain = 0
KAD1 151219Z 32007KT 14/11 A2991 RMK A01 T01420112  RH  082%=      5-min Rain = 0
KAD1 151220Z 32007KT 14/11 A2991 RMK A01 T01430113  RH  082%=      5-min Rain = 0
KAD1 151221Z 32006KT 14/11 A2991 RMK A01 T01430112  RH  082%=      5-min Rain = 0
KAD1 151222Z 31005KT 14/11 A2991 RMK A01 T01430112  RH  082%=      5-min Rain = 0
KAD1 151223Z 31006KT 14/11 A2991 RMK A01 T01430112  RH  082%=      5-min Rain = 0
KAD1 151224Z 31005KT 14/11 A2991 RMK A01 T01430113  RH  082%=      5-min Rain = 0
KAD1 151225Z 32006KT 14/11 A2991 RMK A01 T01440113  RH  082%=      5-min Rain = 0
KAD1 151226Z 32007KT 14/11 A2991 RMK A01 T01440113  RH  081%=      5-min Rain = 0
KAD1 151227Z 33006KT 15/11 A2992 RMK A01 T01450113  RH  081%=      5-min Rain = 0
KAD1 151228Z 33005KT 15/11 A2991 RMK A01 T01460113  RH  081%=      5-min Rain = 0
KAD1 151229Z 32006KT 15/11 A2991 RMK A01 T01460114  RH  081%=      5-min Rain = 0
KAD1 151230Z 32005KT 15/11 A2991 RMK A01 T01460113  RH  080%=      5-min Rain = 0
KAD1 151231Z 32005KT 15/11 A2991 RMK A01 T01460113  RH  080%=      5-min Rain = 0
KAD1 151232Z 33005KT 15/11 A2991 RMK A01 T01470113  RH  080%=      5-min Rain = 0
KAD1 151233Z 32006KT 15/11 A2991 RMK A01 T01470114  RH  080%=      5-min Rain = 0
KAD1 151234Z 32006KT 15/11 A2991 RMK A01 T01480114  RH  080%=      5-min Rain = 0
KAD1 151235Z 33007KT 15/11 A2991 RMK A01 T01480114  RH  080%=      5-min Rain = 0
KAD1 151236Z 32006KT 15/11 A2991 RMK A01 T01480113  RH  079%=      5-min Rain = 0
KAD1 151237Z 32006KT 15/11 A2991 RMK A01 T01490114  RH  079%=      5-min Rain = 0
KAD1 151238Z 31006KT 15/11 A2992 RMK A01 T01490113  RH  079%=      5-min Rain = 0
KAD1 151239Z 31007KT 15/11 A2992 RMK A01 T01490114  RH  079%=      5-min Rain = 0
KAD1 151240Z 31008KT 15/11 A2992 RMK A01 T01500114  RH  079%=      5-min Rain = 0
KAD1 151241Z 31009KT 15/11 A2992 RMK A01 T01500113  RH  078%=      5-min Rain = 0
KAD1 151242Z 31008KT 15/11 A2992 RMK A01 T01510114  RH  078%=      5-min Rain = 0
KAD1 151243Z 31007KT 15/11 A2992 RMK A01 T01520114  RH  078%=      5-min Rain = 0
KAD1 151244Z 31006KT 15/12 A2992 RMK A01 T01530115  RH  078%=      5-min Rain = 0
KAD1 151245Z 31006KT 15/12 A2992 RMK A01 T01530115  RH  078%=      5-min Rain = 0
KAD1 151246Z 32007KT 15/12 A2992 RMK A01 T01530115  RH  078%=      5-min Rain = 0
KAD1 151247Z 32007KT 15/12 A2992 RMK A01 T01540115  RH  078%=      5-min Rain = 0
KAD1 151248Z 32008KT 16/12 A2992 RMK A01 T01550116  RH  078%=      5-min Rain = 0
KAD1 151249Z 32007KT 16/12 A2992 RMK A01 T01560115  RH  077%=      5-min Rain = 0
KAD1 151250Z 31008KT 16/12 A2992 RMK A01 T01560115  RH  077%=      5-min Rain = 0
KAD1 151251Z 31008KT 16/12 A2992 RMK A01 T01560115  RH  077%=      5-min Rain = 0
KAD1 151252Z 31008KT 16/12 A2992 RMK A01 T01560115  RH  077%=      5-min Rain = 0
KAD1 151253Z 31007KT 16/12 A2993 RMK A01 T01560115  RH  077%=      5-min Rain = 0
KAD1 151254Z 31007KT 16/12 A2993 RMK A01 T01580117  RH  077%=      5-min Rain = 0
KAD1 151255Z 31007KT 16/12 A2993 RMK A01 T01590117  RH  076%=      5-min Rain = 0
KAD1 151256Z 31008KT 16/12 A2993 RMK A01 T01600116  RH  075%=      5-min Rain = 0
KAD1 151257Z 32008KT 16/12 A2993 RMK A01 T01600116  RH  075%=      5-min Rain = 0
KAD1 151258Z 32008KT 16/12 A2993 RMK A01 T01610116  RH  075%=      5-min Rain = 0
KAD1 151259Z 32007KT 16/12 A2993 RMK A01 T01610116  RH  075%=      5-min Rain = 0
KAD1 151300Z 32008KT 16/12 A2993 RMK A01 T01610116  RH  074%=      5-min Rain = 0
KAD1 151301Z 32007KT 16/12 A2993 RMK A01 T01620116  RH  074%=      5-min Rain = 0
KAD1 151302Z 31007KT 16/12 A2993 RMK A01 T01630116  RH  074%=      5-min Rain = 0
KAD1 151303Z 31007KT 16/12 A2993 RMK A01 T01640117  RH  074%=      5-min Rain = 0
KAD1 151304Z 31006KT 17/12 A2993 RMK A01 T01650118  RH  074%=      5-min Rain = 0
KAD1 151305Z 31008KT 17/12 A2993 RMK A01 T01660118  RH  073%=      5-min Rain = 0
KAD1 151306Z 31008KT 17/12 A2993 RMK A01 T01660117  RH  072%=      5-min Rain = 0
KAD1 151307Z 32008KT 17/12 A2993 RMK A01 T01660117  RH  072%=      5-min Rain = 0
KAD1 151308Z 32008KT 17/12 A2993 RMK A01 T01670117  RH  072%=      5-min Rain = 0
KAD1 151309Z 31006KT 17/12 A2993 RMK A01 T01670117  RH  072%=      5-min Rain = 0
KAD1 151310Z 32008KT 17/12 A2993 RMK A01 T01670117  RH  072%=      5-min Rain = 0
KAD1 151311Z 32008KT 17/12 A2993 RMK A01 T01680117  RH  072%=      5-min Rain = 0
KAD1 151312Z 32009KT 17/12 A2993 RMK A01 T01680117  RH  072%=      5-min Rain = 0
KAD1 151313Z 32010KT 17/12 A2993 RMK A01 T01680116  RH  071%=      5-min Rain = 0
KAD1 151314Z 32009KT 17/12 A2993 RMK A01 T01680117  RH  072%=      5-min Rain = 0
KAD1 151315Z 32008KT 17/12 A2993 RMK A01 T01690117  RH  072%=      5-min Rain = 0
KAD1 151316Z 32008KT 17/12 A2993 RMK A01 T01690116  RH  071%=      5-min Rain = 0
KAD1 151317Z 32008KT 17/12 A2993 RMK A01 T01690117  RH  071%=      5-min Rain = 0
KAD1 151318Z 32009KT 17/12 A2993 RMK A01 T01700118  RH  071%=      5-min Rain = 0
KAD1 151319Z 32010KT 17/12 A2993 RMK A01 T01700117  RH  071%=      5-min Rain = 0
KAD1 151320Z 34010KT 17/12 A2993 RMK A01 T01700117  RH  071%=      5-min Rain = 0
KAD1 151321Z 33008KT 17/12 A2993 RMK A01 T01710118  RH  071%=      5-min Rain = 0
KAD1 151322Z 33007KT 17/12 A2993 RMK A01 T01720119  RH  071%=      5-min Rain = 0
KAD1 151323Z 33008KT 17/12 A2993 RMK A01 T01730119  RH  071%=      5-min Rain = 0
KAD1 151324Z 33009KT 17/12 A2993 RMK A01 T01740117  RH  069%=      5-min Rain = 0
KAD1 151325Z 34008KT 17/12 A2993 RMK A01 T01740116  RH  069%=      5-min Rain = 0
KAD1 151326Z 34010KT 17/12 A2993 RMK A01 T01730117  RH  070%=      5-min Rain = 0
KAD1 151327Z 33009KT 17/12 A2993 RMK A01 T01740116  RH  069%=      5-min Rain = 0
KAD1 151328Z 33007KT 18/12 A2993 RMK A01 T01750118  RH  069%=      5-min Rain = 0
KAD1 151329Z 33008KT 18/12 A2993 RMK A01 T01760120  RH  069%=      5-min Rain = 0
KAD1 151330Z 34009KT 18/12 A2993 RMK A01 T01770119  RH  069%=      5-min Rain = 0
KAD1 151331Z 33010KT 18/12 A2993 RMK A01 T01790117  RH  067%=      5-min Rain = 0
KAD1 151332Z 33011KT 18/12 A2994 RMK A01 T01790116  RH  067%=      5-min Rain = 0
KAD1 151333Z 34012KT 18/12 A2994 RMK A01 T01790116  RH  067%=      5-min Rain = 0
KAD1 151334Z 34011KT 18/12 A2994 RMK A01 T01790116  RH  067%=      5-min Rain = 0
KAD1 151335Z 34010KT 18/12 A2994 RMK A01 T01790116  RH  066%=      5-min Rain = 0
KAD1 151336Z 33009KT 18/12 A2994 RMK A01 T01800116  RH  067%=      5-min Rain = 0
KAD1 151337Z 34011KT 18/12 A2994 RMK A01 T01810117  RH  066%=      5-min Rain = 0
KAD1 151338Z 33011KT 18/12 A2994 RMK A01 T01810116  RH  066%=      5-min Rain = 0
KAD1 151339Z 33012KT 18/12 A2994 RMK A01 T01800115  RH  065%=      5-min Rain = 0
KAD1 151340Z 34011KT 18/12 A2994 RMK A01 T01800115  RH  066%=      5-min Rain = 0
KAD1 151341Z 34011KT 18/12 A2994 RMK A01 T01800116  RH  066%=      5-min Rain = 0
KAD1 151342Z 34012KT 18/12 A2994 RMK A01 T01810115  RH  065%=      5-min Rain = 0
KAD1 151343Z 33010KT 18/12 A2994 RMK A01 T01810116  RH  066%=      5-min Rain = 0
KAD1 151344Z 33011KT 18/12 A2994 RMK A01 T01820116  RH  065%=      5-min Rain = 0
KAD1 151345Z 33008KT 18/12 A2994 RMK A01 T01820116  RH  065%=      5-min Rain = 0
KAD1 151346Z 32009KT 18/12 A2994 RMK A01 T01830118  RH  066%=      5-min Rain = 0
KAD1 151347Z 33008KT 18/12 A2994 RMK A01 T01840118  RH  065%=      5-min Rain = 0
KAD1 151348Z 33010KT 19/12 A2994 RMK A01 T01850117  RH  065%=      5-min Rain = 0
KAD1 151349Z 34010KT 19/12 A2994 RMK A01 T01850116  RH  064%=      5-min Rain = 0
KAD1 151350Z 34009KT 18/12 A2994 RMK A01 T01840116  RH  065%=      5-min Rain = 0
KAD1 151351Z 33010KT 19/12 A2994 RMK A01 T01850117  RH  065%=      5-min Rain = 0
KAD1 151352Z 32011KT 19/12 A2994 RMK A01 T01850117  RH  064%=      5-min Rain = 0
KAD1 151353Z 33010KT 19/12 A2994 RMK A01 T01860117  RH  064%=      5-min Rain = 0
KAD1 151354Z 33011KT 19/12 A2994 RMK A01 T01860117  RH  064%=      5-min Rain = 0
KAD1 151355Z 34010KT 19/12 A2994 RMK A01 T01860116  RH  064%=      5-min Rain = 0
KAD1 151356Z 33008KT 19/12 A2994 RMK A01 T01860119  RH  065%=      5-min Rain = 0
KAD1 151357Z 34011KT 19/12 A2994 RMK A01 T01880118  RH  064%=      5-min Rain = 0
KAD1 151358Z 34011KT 19/12 A2994 RMK A01 T01880117  RH  063%=      5-min Rain = 0
KAD1 151359Z 33010KT 19/12 A2994 RMK A01 T01870117  RH  064%=      5-min Rain = 0
KAD1 151400Z 33009KT 19/12 A2994 RMK A01 T01880119  RH  064%=      5-min Rain = 0
KAD1 151401Z 33010KT 19/12 A2994 RMK A01 T01890118  RH  063%=      5-min Rain = 0
KAD1 151402Z 33011KT 19/12 A2994 RMK A01 T01890118  RH  063%=      5-min Rain = 0
KAD1 151403Z 33012KT 19/12 A2994 RMK A01 T01890118  RH  063%=      5-min Rain = 0
KAD1 151404Z 33012KT 19/12 A2994 RMK A01 T01890118  RH  063%=      5-min Rain = 0
KAD1 151405Z 33012KT 19/12 A2994 RMK A01 T01900118  RH  063%=      5-min Rain = 0
KAD1 151406Z 33012KT 19/12 A2994 RMK A01 T01900118  RH  063%=      5-min Rain = 0
KAD1 151407Z 34011KT 19/12 A2994 RMK A01 T01900118  RH  063%=      5-min Rain = 0
KAD1 151408Z 33012KT 19/12 A2994 RMK A01 T01910117  RH  062%=      5-min Rain = 0
KAD1 151409Z 33011KT 19/12 A2994 RMK A01 T01900117  RH  063%=      5-min Rain = 0
KAD1 151410Z 33009KT 19/12 A2994 RMK A01 T01910121  RH  064%=      5-min Rain = 0
KAD1 151411Z 34011KT 19/12 A2994 RMK A01 T01930120  RH  062%=      5-min Rain = 0
KAD1 151412Z 33011KT 19/12 A2994 RMK A01 T01930119  RH  062%=      5-min Rain = 0
KAD1 151413Z 34013KT 19/12 A2994 RMK A01 T01930118  RH  062%=      5-min Rain = 0
KAD1 151414Z 35011KT 19/12 A2994 RMK A01 T01920118  RH  062%=      5-min Rain = 0
KAD1 151415Z 35011KT 19/12 A2994 RMK A01 T01930119  RH  062%=      5-min Rain = 0
KAD1 151416Z 33010KT 19/12 A2994 RMK A01 T01940120  RH  062%=      5-min Rain = 0
KAD1 151417Z 33010KT 20/12 A2994 RMK A01 T01950121  RH  062%=      5-min Rain = 0
KAD1 151418Z 33011KT 20/12 A2994 RMK A01 T01950120  RH  062%=      5-min Rain = 0
KAD1 151419Z 33012KT 20/12 A2994 RMK A01 T01950120  RH  062%=      5-min Rain = 0
KAD1 151420Z 33012KT 19/12 A2994 RMK A01 T01940119  RH  062%=      5-min Rain = 0
KAD1 151421Z 33011KT 19/12 A2994 RMK A01 T01930119  RH  062%=      5-min Rain = 0
KAD1 151422Z 33010KT 19/12 A2994 RMK A01 T01940121  RH  063%=      5-min Rain = 0
KAD1 151423Z 34011KT 20/12 A2994 RMK A01 T01960121  RH  062%=      5-min Rain = 0
KAD1 151424Z 33011KT 20/12 A2994 RMK A01 T01980121  RH  061%=      5-min Rain = 0
KAD1 151425Z 33011KT 20/12 A2994 RMK A01 T01980121  RH  061%=      5-min Rain = 0
KAD1 151426Z 34010KT 20/12 A2994 RMK A01 T02000122  RH  061%=      5-min Rain = 0
KAD1 151427Z 34010KT 20/12 A2994 RMK A01 T02010121  RH  060%=      5-min Rain = 0
KAD1 151428Z 34014KT 20/12 A2994 RMK A01 T02010121  RH  060%=      5-min Rain = 0
KAD1 151429Z 35012G17KT 20/12 A2994 RMK A01 T02010120  RH  059%=      5-min Rain = 0
KAD1 151430Z 35012KT 20/12 A2994 RMK A01 T02010120  RH  060%=      5-min Rain = 0
KAD1 151431Z 34012KT 20/12 A2995 RMK A01 T02020121  RH  060%=      5-min Rain = 0
KAD1 151432Z 35010KT 20/12 A2995 RMK A01 T02020121  RH  060%=      5-min Rain = 0
KAD1 151433Z 36012KT 20/12 A2995 RMK A01 T02020122  RH  060%=      5-min Rain = 0
KAD1 151434Z 34009KT 20/12 A2995 RMK A01 T02040123  RH  060%=      5-min Rain = 0
KAD1 151435Z 33011KT 21/12 A2995 RMK A01 T02050124  RH  060%=      5-min Rain = 0
KAD1 151436Z 34010KT 21/12 A2995 RMK A01 T02050123  RH  059%=      5-min Rain = 0
KAD1 151437Z 34011KT 21/12 A2995 RMK A01 T02050122  RH  059%=      5-min Rain = 0
KAD1 151438Z 34010KT 21/12 A2995 RMK A01 T02060121  RH  058%=      5-min Rain = 0
KAD1 151439Z 34011KT 21/12 A2995 RMK A01 T02050123  RH  059%=      5-min Rain = 0
KAD1 151440Z 33010KT 21/12 A2995 RMK A01 T02060123  RH  059%=      5-min Rain = 0
KAD1 151441Z 32011KT 21/12 A2995 RMK A01 T02060122  RH  059%=      5-min Rain = 0
KAD1 151442Z 34012KT 21/12 A2995 RMK A01 T02060123  RH  059%=      5-min Rain = 0
KAD1 151443Z 35012KT 21/12 A2995 RMK A01 T02060122  RH  058%=      5-min Rain = 0
KAD1 151444Z 35012KT 21/12 A2995 RMK A01 T02060123  RH  059%=      5-min Rain = 0
KAD1 151445Z 34013KT 21/12 A2995 RMK A01 T02080123  RH  058%=      5-min Rain = 0
KAD1 151446Z 33013KT 21/12 A2995 RMK A01 T02080122  RH  058%=      5-min Rain = 0
KAD1 151447Z 34011KT 21/12 A2995 RMK A01 T02080122  RH  058%=      5-min Rain = 0
KAD1 151448Z 34011KT 21/12 A2995 RMK A01 T02070123  RH  058%=      5-min Rain = 0
KAD1 151449Z 33012KT 21/12 A2995 RMK A01 T02090124  RH  058%=      5-min Rain = 0
KAD1 151450Z 34009KT 21/12 A2995 RMK A01 T02100124  RH  058%=      5-min Rain = 0
KAD1 151451Z 33009KT 21/13 A2995 RMK A01 T02110127  RH  059%=      5-min Rain = 0
KAD1 151452Z 35009G14KT 21/13 A2995 RMK A01 T02130125  RH  057%=      5-min Rain = 0
KAD1 151453Z 35013KT 21/12 A2995 RMK A01 T02130123  RH  056%=      5-min Rain = 0
KAD1 151454Z 35011KT 21/12 A2995 RMK A01 T02120123  RH  057%=      5-min Rain = 0
KAD1 151455Z 34010KT 21/13 A2995 RMK A01 T02130125  RH  057%=      5-min Rain = 0
KAD1 151456Z 34012KT 21/12 A2995 RMK A01 T02140124  RH  056%=      5-min Rain = 0
KAD1 151457Z 34013KT 21/12 A2995 RMK A01 T02140124  RH  056%=      5-min Rain = 0
KAD1 151458Z 35013KT 21/13 A2995 RMK A01 T02140125  RH  057%=      5-min Rain = 0
KAD1 151459Z 35012KT 22/13 A2995 RMK A01 T02150126  RH  057%=      5-min Rain = 0
KAD1 151500Z 36012KT 22/13 A2995 RMK A01 T02160127  RH  057%=      5-min Rain = 0
KAD1 151501Z 35013KT 22/13 A2995 RMK A01 T02170127  RH  056%=      5-min Rain = 0
KAD1 151502Z 35013KT 22/13 A2995 RMK A01 T02160125  RH  056%=      5-min Rain = 0
KAD1 151503Z 35011KT 22/13 A2995 RMK A01 T02160125  RH  056%=      5-min Rain = 0
KAD1 151504Z 36010KT 22/13 A2995 RMK A01 T02170129  RH  057%=      5-min Rain = 0
KAD1 151505Z 34010KT 22/13 A2995 RMK A01 T02210130  RH  056%=      5-min Rain = 0
KAD1 151506Z 35010KT 22/13 A2995 RMK A01 T02220128  RH  055%=      5-min Rain = 0
KAD1 151507Z 34011KT 22/13 A2995 RMK A01 T02220129  RH  056%=      5-min Rain = 0
KAD1 151508Z 34011KT 22/13 A2995 RMK A01 T02220129  RH  056%=      5-min Rain = 0
KAD1 151509Z 36010KT 22/13 A2995 RMK A01 T02210128  RH  055%=      5-min Rain = 0
KAD1 151510Z 35013KT 22/13 A2995 RMK A01 T02220128  RH  055%=      5-min Rain = 0
KAD1 151511Z 35014KT 22/13 A2995 RMK A01 T02210127  RH  055%=      5-min Rain = 0
KAD1 151512Z 35012KT 22/13 A2995 RMK A01 T02210128  RH  056%=      5-min Rain = 0
KAD1 151513Z 35013KT 22/13 A2995 RMK A01 T02210128  RH  056%=      5-min Rain = 0
KAD1 151514Z 35012KT 22/13 A2995 RMK A01 T02210126  RH  055%=      5-min Rain = 0
KAD1 151515Z 35011KT 22/13 A2995 RMK A01 T02200127  RH  056%=      5-min Rain = 0
KAD1 151516Z 34010KT 22/13 A2995 RMK A01 T02200128  RH  056%=      5-min Rain = 0
KAD1 151517Z 34011KT 22/13 A2995 RMK A01 T02210131  RH  057%=      5-min Rain = 0
KAD1 151518Z 34010KT 22/13 A2995 RMK A01 T02230129  RH  055%=      5-min Rain = 0
KAD1 151519Z 35011KT 22/13 A2995 RMK A01 T02230128  RH  055%=      5-min Rain = 0
KAD1 151520Z 00010KT 22/13 A2995 RMK A01 T02230128  RH  055%=      5-min Rain = 0
KAD1 151521Z 36010KT 22/13 A2995 RMK A01 T02230130  RH  056%=      5-min Rain = 0
KAD1 151522Z 01010KT 22/13 A2995 RMK A01 T02240132  RH  056%=      5-min Rain = 0
KAD1 151523Z 01011KT 23/14 A2995 RMK A01 T02260135  RH  056%=      5-min Rain = 0
KAD1 151524Z 01011KT 23/13 A2995 RMK A01 T02260133  RH  056%=      5-min Rain = 0
KAD1 151525Z 01011KT 23/13 A2995 RMK A01 T02260133  RH  056%=      5-min Rain = 0
KAD1 151526Z 36011KT 23/13 A2995 RMK A01 T02250131  RH  055%=      5-min Rain = 0
KAD1 151527Z 01012KT 22/13 A2995 RMK A01 T02240132  RH  056%=      5-min Rain = 0
KAD1 151528Z 01013KT 22/13 A2995 RMK A01 T02240134  RH  056%=      5-min Rain = 0
KAD1 151529Z 01013KT 22/14 A2995 RMK A01 T02240135  RH  057%=      5-min Rain = 0
KAD1 151530Z 36011KT 22/13 A2995 RMK A01 T02240133  RH  056%=      5-min Rain = 0
KAD1 151531Z 01013KT 23/14 A2995 RMK A01 T02250135  RH  056%=      5-min Rain = 0
KAD1 151532Z 01013KT 23/13 A2995 RMK A01 T02260133  RH  056%=      5-min Rain = 0
KAD1 151533Z 00010KT 23/13 A2995 RMK A01 T02260134  RH  056%=      5-min Rain = 0
KAD1 151534Z 34011KT 23/13 A2995 RMK A01 T02260133  RH  056%=      5-min Rain = 0
KAD1 151535Z 35010KT 23/14 A2995 RMK A01 T02270135  RH  056%=      5-min Rain = 0
KAD1 151536Z 01010KT 23/14 A2995 RMK A01 T02300138  RH  056%=      5-min Rain = 0
KAD1 151537Z 02009KT 23/14 A2995 RMK A01 T02320136  RH  055%=      5-min Rain = 0
KAD1 151538Z 01009KT 23/14 A2995 RMK A01 T02310136  RH  055%=      5-min Rain = 0
KAD1 151539Z 01008KT 23/14 A2995 RMK A01 T02310136  RH  055%=      5-min Rain = 0
KAD1 151540Z 01009KT 23/14 A2995 RMK A01 T02320136  RH  055%=      5-min Rain = 0
KAD1 151541Z 00007KT 23/13 A2995 RMK A01 T02320134  RH  054%=      5-min Rain = 0
KAD1 151542Z 35010KT 23/14 A2995 RMK A01 T02320135  RH  055%=      5-min Rain = 0
KAD1 151543Z 01010KT 23/14 A2995 RMK A01 T02320139  RH  056%=      5-min Rain = 0
KAD1 151544Z 00010KT 23/14 A2995 RMK A01 T02340139  RH  055%=      5-min Rain = 0
KAD1 151545Z 34009KT 24/14 A2995 RMK A01 T02360140  RH  055%=      5-min Rain = 0
KAD1 151546Z 34010KT 24/14 A2995 RMK A01 T02360136  RH  053%=      5-min Rain = 0
KAD1 151547Z 36007KT 24/14 A2995 RMK A01 T02350138  RH  055%=      5-min Rain = 0
KAD1 151548Z 01012KT 23/14 A2995 RMK A01 T02340138  RH  055%=      5-min Rain = 0
KAD1 151549Z 01012KT 23/14 A2995 RMK A01 T02340137  RH  054%=      5-min Rain = 0
KAD1 151550Z 35008KT 23/14 A2995 RMK A01 T02340137  RH  054%=      5-min Rain = 0
KAD1 151551Z 35009KT 24/14 A2995 RMK A01 T02360138  RH  054%=      5-min Rain = 0
KAD1 151552Z 34008KT 24/14 A2995 RMK A01 T02380140  RH  054%=      5-min Rain = 0
KAD1 151553Z 36010KT 24/14 A2995 RMK A01 T02390142  RH  054%=      5-min Rain = 0
KAD1 151554Z 01011KT 24/14 A2995 RMK A01 T02400138  RH  053%=      5-min Rain = 0
KAD1 151555Z 00011KT 24/14 A2995 RMK A01 T02370137  RH  053%=      5-min Rain = 0
KAD1 151556Z 01011KT 24/14 A2995 RMK A01 T02360138  RH  054%=      5-min Rain = 0
KAD1 151557Z 01010KT 24/14 A2995 RMK A01 T02370138  RH  054%=      5-min Rain = 0
KAD1 151558Z 00009KT 24/14 A2995 RMK A01 T02380139  RH  054%=      5-min Rain = 0
KAD1 151559Z 01009KT 24/14 A2994 RMK A01 T02380139  RH  054%=      5-min Rain = 0
KAD1 151600Z 02010KT 24/14 A2994 RMK A01 T02380139  RH  054%=      5-min Rain = 0
KAD1 151601Z 02011KT 24/14 A2994 RMK A01 T02390142  RH  054%=      5-min Rain = 0
KAD1 151602Z 03009KT 24/14 A2994 RMK A01 T02420142  RH  054%=      5-min Rain = 0
KAD1 151603Z 03010KT 24/14 A2994 RMK A01 T02420142  RH  054%=      5-min Rain = 0
KAD1 151604Z 01013KT 24/14 A2994 RMK A01 T02410141  RH  054%=      5-min Rain = 0
KAD1 151605Z 01014KT 24/14 A2994 RMK A01 T02410139  RH  053%=      5-min Rain = 0
KAD1 151606Z 03012KT 24/14 A2994 RMK A01 T02400139  RH  053%=      5-min Rain = 0
KAD1 151607Z 02010KT 24/14 A2994 RMK A01 T02390141  RH  054%=      5-min Rain = 0
KAD1 151608Z 02013KT 24/14 A2994 RMK A01 T02410143  RH  054%=      5-min Rain = 0
KAD1 151609Z 02015KT 24/14 A2994 RMK A01 T02430141  RH  053%=      5-min Rain = 0
KAD1 151610Z 04013KT 24/14 A2994 RMK A01 T02410139  RH  053%=      5-min Rain = 0
KAD1 151611Z 03011G17KT 24/14 A2994 RMK A01 T02400142  RH  054%=      5-min Rain = 0
KAD1 151612Z 01014KT 24/14 A2995 RMK A01 T02430143  RH  054%=      5-min Rain = 0
KAD1 151613Z 02010KT 24/14 A2995 RMK A01 T02440141  RH  053%=      5-min Rain = 0
KAD1 151614Z 03009KT 25/15 A2995 RMK A01 T02450147  RH  054%=      5-min Rain = 0
KAD1 151615Z 04013KT 25/15 A2995 RMK A01 T02490146  RH  053%=      5-min Rain = 0
KAD1 151616Z 02013KT 25/14 A2995 RMK A01 T02500143  RH  051%=      5-min Rain = 0
KAD1 151617Z 02011KT 25/14 A2995 RMK A01 T02490140  RH  051%=      5-min Rain = 0
KAD1 151618Z 35010KT 25/14 A2995 RMK A01 T02470141  RH  051%=      5-min Rain = 0
KAD1 151619Z 35010KT 25/14 A2996 RMK A01 T02470137  RH  050%=      5-min Rain = 0
KAD1 151620Z 35010KT 25/14 A2996 RMK A01 T02460138  RH  051%=      5-min Rain = 0
KAD1 151621Z 01011KT 25/14 A2996 RMK A01 T02460140  RH  052%=      5-min Rain = 0
KAD1 151622Z 34009KT 25/14 A2996 RMK A01 T02480137  RH  050%=      5-min Rain = 0
KAD1 151623Z 34008KT 25/14 A2996 RMK A01 T02470138  RH  051%=      5-min Rain = 0
KAD1 151624Z 34009KT 25/14 A2996 RMK A01 T02470137  RH  050%=      5-min Rain = 0
KAD1 151625Z 35009KT 25/14 A2996 RMK A01 T02470137  RH  050%=      5-min Rain = 0
KAD1 151626Z 02009KT 25/14 A2996 RMK A01 T02480139  RH  051%=      5-min Rain = 0
KAD1 151627Z 02011KT 25/14 A2996 RMK A01 T02500142  RH  051%=      5-min Rain = 0
KAD1 151628Z 02012KT 25/14 A2996 RMK A01 T02510141  RH  050%=      5-min Rain = 0
KAD1 151629Z 02008KT 25/14 A2996 RMK A01 T02490137  RH  050%=      5-min Rain = 0
KAD1 151630Z 03008KT 25/14 A2996 RMK A01 T02480141  RH  051%=      5-min Rain = 0
KAD1 151631Z 03010KT 25/15 A2996 RMK A01 T02510146  RH  052%=      5-min Rain = 0
KAD1 151632Z 02010KT 25/14 A2996 RMK A01 T02530143  RH  050%=      5-min Rain = 0
KAD1 151633Z 01012KT 25/14 A2996 RMK A01 T02540140  RH  049%=      5-min Rain = 0
KAD1 151634Z 02008KT 25/14 A2996 RMK A01 T02530139  RH  049%=      5-min Rain = 0
KAD1 151635Z 02010KT 25/14 A2996 RMK A01 T02520144  RH  051%=      5-min Rain = 0
KAD1 151636Z 02014KT 25/14 A2996 RMK A01 T02540140  RH  049%=      5-min Rain = 0
KAD1 151637Z 02014KT 25/14 A2996 RMK A01 T02540136  RH  048%=      5-min Rain = 0
KAD1 151638Z 02013KT 25/14 A2996 RMK A01 T02530139  RH  049%=      5-min Rain = 0
KAD1 151639Z 02011KT 25/14 A2996 RMK A01 T02520136  RH  048%=      5-min Rain = 0
KAD1 151640Z 02010KT 25/14 A2996 RMK A01 T02500137  RH  050%=      5-min Rain = 0
KAD1 151641Z 01007KT 25/14 A2996 RMK A01 T02490140  RH  050%=      5-min Rain = 0
KAD1 151642Z 03008KT 25/14 A2996 RMK A01 T02510141  RH  050%=      5-min Rain = 0
KAD1 151643Z 03009KT 25/14 A2996 RMK A01 T02520143  RH  051%=      5-min Rain = 0
KAD1 151644Z 01011KT 25/14 A2997 RMK A01 T02540141  RH  050%=      5-min Rain = 0
KAD1 151645Z 01012KT 26/14 A2997 RMK A01 T02550140  RH  049%=      5-min Rain = 0
KAD1 151646Z 02010KT 26/14 A2997 RMK A01 T02550136  RH  048%=      5-min Rain = 0
KAD1 151647Z 01007KT 25/14 A2997 RMK A01 T02520139  RH  049%=      5-min Rain = 0
KAD1 151648Z 01011KT 25/14 A2997 RMK A01 T02530142  RH  050%=      5-min Rain = 0
KAD1 151649Z 03012KT 26/15 A2997 RMK A01 T02580146  RH  050%=      5-min Rain = 0
KAD1 151650Z 01013KT 26/14 A2997 RMK A01 T02610144  RH  048%=      5-min Rain = 0
KAD1 151651Z 02013KT 26/14 A2997 RMK A01 T02600137  RH  047%=      5-min Rain = 0
KAD1 151652Z 02010KT 26/14 A2997 RMK A01 T02560138  RH  048%=      5-min Rain = 0
KAD1 151653Z 01010KT 26/14 A2997 RMK A01 T02550140  RH  049%=      5-min Rain = 0
KAD1 151654Z 02007KT 25/14 A2997 RMK A01 T02540135  RH  048%=      5-min Rain = 0
KAD1 151655Z 04009KT 25/14 A2997 RMK A01 T02530140  RH  050%=      5-min Rain = 0
KAD1 151656Z 04010KT 25/14 A2997 RMK A01 T02530144  RH  051%=      5-min Rain = 0
KAD1 151657Z 03011KT 25/14 A2997 RMK A01 T02540138  RH  049%=      5-min Rain = 0
KAD1 151658Z 01015KT 25/14 A2997 RMK A01 T02540140  RH  049%=      5-min Rain = 0
KAD1 151659Z 01016KT 25/14 A2997 RMK A01 T02540138  RH  048%=      5-min Rain = 0
KAD1 151700Z 01012KT 25/14 A2997 RMK A01 T02540135  RH  047%=      5-min Rain = 0
KAD1 151701Z 00010KT 25/13 A2997 RMK A01 T02520133  RH  048%=      5-min Rain = 0
KAD1 151702Z 04012KT 25/14 A2997 RMK A01 T02510137  RH  049%=      5-min Rain = 0
KAD1 151703Z 04014KT 25/14 A2997 RMK A01 T02540142  RH  050%=      5-min Rain = 0
KAD1 151704Z 03013KT 26/14 A2997 RMK A01 T02560141  RH  049%=      5-min Rain = 0
KAD1 151705Z 03013KT 26/14 A2997 RMK A01 T02570140  RH  048%=      5-min Rain = 0
KAD1 151706Z 02012KT 26/14 A2997 RMK A01 T02570140  RH  048%=      5-min Rain = 0
KAD1 151707Z 04011KT 26/14 A2997 RMK A01 T02570139  RH  048%=      5-min Rain = 0
KAD1 151708Z 03013KT 26/14 A2997 RMK A01 T02570142  RH  049%=      5-min Rain = 0
KAD1 151709Z 04011KT 26/14 A2997 RMK A01 T02590138  RH  047%=      5-min Rain = 0
KAD1 151710Z 04010KT 26/14 A2997 RMK A01 T02570142  RH  049%=      5-min Rain = 0
KAD1 151711Z 02007KT 26/14 A2997 RMK A01 T02580144  RH  049%=      5-min Rain = 0
KAD1 151712Z 03010G16KT 26/15 A2997 RMK A01 T02610146  RH  049%=      5-min Rain = 0
KAD1 151713Z 04014KT 26/15 A2997 RMK A01 T02640147  RH  049%=      5-min Rain = 0
KAD1 151714Z 02009KT 26/15 A2997 RMK A01 T02630145  RH  048%=      5-min Rain = 0
KAD1 151715Z 01011KT 26/14 A2997 RMK A01 T02620142  RH  048%=      5-min Rain = 0
KAD1 151716Z 02009KT 26/14 A2997 RMK A01 T02600138  RH  047%=      5-min Rain = 0
KAD1 151717Z 02013KT 26/15 A2997 RMK A01 T02580145  RH  050%=      5-min Rain = 0
KAD1 151718Z 01014KT 26/14 A2997 RMK A01 T02610142  RH  048%=      5-min Rain = 0
KAD1 151719Z 01013KT 26/14 A2997 RMK A01 T02610142  RH  048%=      5-min Rain = 0
KAD1 151720Z 01011KT 26/14 A2997 RMK A01 T02610141  RH  048%=      5-min Rain = 0
KAD1 151721Z 01011KT 26/14 A2997 RMK A01 T02620143  RH  048%=      5-min Rain = 0
KAD1 151722Z 01011KT 26/14 A2997 RMK A01 T02630140  RH  046%=      5-min Rain = 0
KAD1 151723Z 02014KT 26/14 A2997 RMK A01 T02620140  RH  047%=      5-min Rain = 0
KAD1 151724Z 03013KT 26/14 A2997 RMK A01 T02620142  RH  048%=      5-min Rain = 0
KAD1 151725Z 02012KT 26/14 A2997 RMK A01 T02610144  RH  049%=      5-min Rain = 0
KAD1 151726Z 01012KT 26/14 A2997 RMK A01 T02610141  RH  047%=      5-min Rain = 0
KAD1 151727Z 03010KT 26/14 A2997 RMK A01 T02600142  RH  048%=      5-min Rain = 0
KAD1 151728Z 03005KT 26/14 A2997 RMK A01 T02590139  RH  047%=      5-min Rain = 0
KAD1 151729Z 02007KT 26/15 A2997 RMK A01 T02590146  RH  050%=      5-min Rain = 0
KAD1 151730Z 01009KT 26/14 A2997 RMK A01 T02600143  RH  048%=      5-min Rain = 0
KAD1 151731Z 02010KT 26/14 A2997 RMK A01 T02610139  RH  047%=      5-min Rain = 0
KAD1 151732Z 04010KT 26/15 A2997 RMK A01 T02620147  RH  049%=      5-min Rain = 0
KAD1 151733Z 04009KT 26/15 A2997 RMK A01 T02640150  RH  050%=      5-min Rain = 0
KAD1 151734Z 02010KT 27/15 A2997 RMK A01 T02660145  RH  047%=      5-min Rain = 0
KAD1 151735Z 03012KT 27/14 A2997 RMK A01 T02660144  RH  047%=      5-min Rain = 0
KAD1 151736Z 03011KT 27/15 A2997 RMK A01 T02660146  RH  048%=      5-min Rain = 0
KAD1 151737Z 02011KT 27/14 A2997 RMK A01 T02650142  RH  047%=      5-min Rain = 0
KAD1 151738Z 04012KT 26/15 A2997 RMK A01 T02640145  RH  048%=      5-min Rain = 0
KAD1 151739Z 03013KT 27/15 A2997 RMK A01 T02650146  RH  048%=      5-min Rain = 0
KAD1 151740Z 03010KT 26/15 A2997 RMK A01 T02640145  RH  048%=      5-min Rain = 0
KAD1 151741Z 04008KT 26/14 A2997 RMK A01 T02630144  RH  048%=      5-min Rain = 0
KAD1 151742Z 04006KT 26/14 A2997 RMK A01 T02620141  RH  047%=      5-min Rain = 0
KAD1 151743Z 05008KT 26/14 A2997 RMK A01 T02610144  RH  048%=      5-min Rain = 0
KAD1 151744Z 05010KT 26/15 A2997 RMK A01 T02620148  RH  050%=      5-min Rain = 0
KAD1 151745Z 04014KT 27/15 A2997 RMK A01 T02650152  RH  050%=      5-min Rain = 0
KAD1 151746Z 05011KT 27/15 A2997 RMK A01 T02660148  RH  048%=      5-min Rain = 0
KAD1 151747Z 06009KT 26/15 A2997 RMK A01 T02640145  RH  048%=      5-min Rain = 0
KAD1 151748Z 05010KT 26/15 A2997 RMK A01 T02630146  RH  049%=      5-min Rain = 0
KAD1 151749Z 04007KT 26/14 A2997 RMK A01 T02600142  RH  048%=      5-min Rain = 0
KAD1 151750Z 05005KT 26/15 A2997 RMK A01 T02600149  RH  050%=      5-min Rain = 0
KAD1 151751Z 05009KT 26/15 A2997 RMK A01 T02640153  RH  051%=      5-min Rain = 0
KAD1 151752Z 03013KT 27/15 A2997 RMK A01 T02670150  RH  049%=      5-min Rain = 0
KAD1 151753Z 03011KT 27/14 A2997 RMK A01 T02660143  RH  047%=      5-min Rain = 0
KAD1 151754Z 02008KT 26/14 A2997 RMK A01 T02630143  RH  048%=      5-min Rain = 0
KAD1 151755Z 03008KT 26/14 A2997 RMK A01 T02620144  RH  048%=      5-min Rain = 0
KAD1 151756Z 03013KT 26/14 A2997 RMK A01 T02620144  RH  048%=      5-min Rain = 0
KAD1 151757Z 04014KT 26/14 A2997 RMK A01 T02640144  RH  048%=      5-min Rain = 0
KAD1 151758Z 05011KT 26/14 A2997 RMK A01 T02630143  RH  047%=      5-min Rain = 0
KAD1 151759Z 04010KT 26/14 A2997 RMK A01 T02630144  RH  048%=      5-min Rain = 0
KAD1 151800Z 03010KT 26/15 A2997 RMK A01 T02630145  RH  048%=      5-min Rain = 0
KAD1 151801Z 04009KT 26/15 A2997 RMK A01 T02630146  RH  048%=      5-min Rain = 0
KAD1 151802Z 06010KT 27/15 A2997 RMK A01 T02650149  RH  049%=      5-min Rain = 0
KAD1 151803Z 05009KT 27/15 A2997 RMK A01 T02670150  RH  049%=      5-min Rain = 0
KAD1 151804Z 05008KT 27/15 A2997 RMK A01 T02660146  RH  048%=      5-min Rain = 0
KAD1 151805Z 03008KT 27/15 A2997 RMK A01 T02660151  RH  049%=      5-min Rain = 0
KAD1 151806Z 03013KT 27/15 A2997 RMK A01 T02690153  RH  049%=      5-min Rain = 0
KAD1 151807Z 03011KT 27/15 A2997 RMK A01 T02710149  RH  047%=      5-min Rain = 0
KAD1 151808Z 06011KT 27/15 A2997 RMK A01 T02700150  RH  048%=      5-min Rain = 0
KAD1 151809Z 05012KT 27/15 A2997 RMK A01 T02680147  RH  047%=      5-min Rain = 0
KAD1 151810Z 05012KT 27/15 A2997 RMK A01 T02660146  RH  048%=      5-min Rain = 0
KAD1 151811Z 04011KT 26/15 A2997 RMK A01 T02630145  RH  048%=      5-min Rain = 0
KAD1 151812Z 03010KT 26/14 A2997 RMK A01 T02630144  RH  048%=      5-min Rain = 0
KAD1 151813Z 04009KT 26/14 A2997 RMK A01 T02610143  RH  048%=      5-min Rain = 0
KAD1 151814Z 05010KT 26/14 A2997 RMK A01 T02600143  RH  048%=      5-min Rain = 0
KAD1 151815Z 04011KT 26/15 A2997 RMK A01 T02610146  RH  049%=      5-min Rain = 0
KAD1 151816Z 02012KT 26/15 A2997 RMK A01 T02630146  RH  049%=      5-min Rain = 0
KAD1 151817Z 01008KT 26/14 A2997 RMK A01 T02640140  RH  046%=      5-min Rain = 0
KAD1 151818Z 02006KT 26/14 A2997 RMK A01 T02630139  RH  046%=      5-min Rain = 0
KAD1 151819Z 03008KT 26/14 A2997 RMK A01 T02630142  RH  047%=      5-min Rain = 0
KAD1 151820Z 04013KT 27/15 A2997 RMK A01 T02650146  RH  048%=      5-min Rain = 0
KAD1 151821Z 04011KT 27/14 A2997 RMK A01 T02660143  RH  047%=      5-min Rain = 0
KAD1 151822Z 05008KT 26/15 A2997 RMK A01 T02640145  RH  048%=      5-min Rain = 0
KAD1 151823Z 04009KT 26/15 A2997 RMK A01 T02640149  RH  049%=      5-min Rain = 0
KAD1 151824Z 03007KT 27/15 A2997 RMK A01 T02670150  RH  048%=      5-min Rain = 0
KAD1 151825Z 02012KT 27/15 A2997 RMK A01 T02690148  RH  047%=      5-min Rain = 0
KAD1 151826Z 01011KT 27/14 A2997 RMK A01 T02670142  RH  046%=      5-min Rain = 0
KAD1 151827Z 03012KT 27/15 A2997 RMK A01 T02660146  RH  048%=      5-min Rain = 0
KAD1 151828Z 04011KT 27/14 A2997 RMK A01 T02660142  RH  047%=      5-min Rain = 0
KAD1 151829Z 05009KT 27/14 A2997 RMK A01 T02650143  RH  047%=      5-min Rain = 0
KAD1 151830Z 06007KT 27/14 A2997 RMK A01 T02650142  RH  047%=      5-min Rain = 0
KAD1 151831Z 06006KT 27/14 A2997 RMK A01 T02650140  RH  046%=      5-min Rain = 0
KAD1 151832Z 07008KT 27/14 A2997 RMK A01 T02650142  RH  047%=      5-min Rain = 0
KAD1 151833Z 06009KT 27/15 A2997 RMK A01 T02650148  RH  049%=      5-min Rain = 0
KAD1 151834Z 06008KT 27/15 A2997 RMK A01 T02670150  RH  048%=      5-min Rain = 0
KAD1 151835Z 07009KT 27/15 A2997 RMK A01 T02680149  RH  048%=      5-min Rain = 0
KAD1 151836Z 07010KT 27/15 A2996 RMK A01 T02680148  RH  048%=      5-min Rain = 0
KAD1 151837Z 06012KT 27/15 A2996 RMK A01 T02680149  RH  048%=      5-min Rain = 0
KAD1 151838Z 07012KT 27/15 A2996 RMK A01 T02680150  RH  048%=      5-min Rain = 0
KAD1 151839Z 06012KT 27/15 A2996 RMK A01 T02680148  RH  048%=      5-min Rain = 0
KAD1 151840Z 05011KT 27/15 A2996 RMK A01 T02680147  RH  047%=      5-min Rain = 0
KAD1 151841Z 04008KT 27/15 A2996 RMK A01 T02680149  RH  048%=      5-min Rain = 0
KAD1 151842Z 06008KT 27/15 A2996 RMK A01 T02680150  RH  048%=      5-min Rain = 0
KAD1 151843Z 05007KT 27/15 A2996 RMK A01 T02680150  RH  048%=      5-min Rain = 0
KAD1 151844Z 07010KT 27/15 A2996 RMK A01 T02690151  RH  048%=      5-min Rain = 0
KAD1 151845Z 05010KT 27/15 A2996 RMK A01 T02700153  RH  049%=      5-min Rain = 0
KAD1 151846Z 06011KT 27/15 A2996 RMK A01 T02710149  RH  047%=      5-min Rain = 0
KAD1 151847Z 07009KT 27/15 A2996 RMK A01 T02710149  RH  047%=      5-min Rain = 0
KAD1 151848Z 04013KT 27/16 A2996 RMK A01 T02720155  RH  049%=      5-min Rain = 0
KAD1 151849Z 02011KT 27/15 A2996 RMK A01 T02730148  RH  046%=      5-min Rain = 0
KAD1 151850Z 03010KT 27/15 A2996 RMK A01 T02730152  RH  048%=      5-min Rain = 0
KAD1 151851Z 04009KT 27/15 A2996 RMK A01 T02720147  RH  046%=      5-min Rain = 0
KAD1 151852Z 06012KT 27/15 A2995 RMK A01 T02710153  RH  049%=      5-min Rain = 0
KAD1 151853Z 05012KT 27/15 A2995 RMK A01 T02710148  RH  047%=      5-min Rain = 0
KAD1 151854Z 06013KT 27/15 A2995 RMK A01 T02690152  RH  049%=      5-min Rain = 0
KAD1 151855Z 07011KT 27/15 A2995 RMK A01 T02700150  RH  048%=      5-min Rain = 0
KAD1 151856Z 04014KT 27/15 A2995 RMK A01 T02700153  RH  049%=      5-min Rain = 0
KAD1 151857Z 04015KT 27/15 A2995 RMK A01 T02710151  RH  048%=      5-min Rain = 0
KAD1 151858Z 05012KT 27/15 A2995 RMK A01 T02720148  RH  047%=      5-min Rain = 0
KAD1 151859Z 03013KT 27/15 A2995 RMK A01 T02700148  RH  047%=      5-min Rain = 0
KAD1 151900Z 04013KT 27/15 A2995 RMK A01 T02700146  RH  046%=      5-min Rain = 0
KAD1 151901Z 04011KT 27/15 A2995 RMK A01 T02700149  RH  047%=      5-min Rain = 0
KAD1 151902Z 04013KT 27/15 A2995 RMK A01 T02710148  RH  047%=      5-min Rain = 0
KAD1 151903Z 04010KT 27/14 A2995 RMK A01 T02710144  RH  046%=      5-min Rain = 0
KAD1 151904Z 04011KT 27/14 A2995 RMK A01 T02710143  RH  045%=      5-min Rain = 0
KAD1 151905Z 04011KT 27/15 A2995 RMK A01 T02720149  RH  047%=      5-min Rain = 0
KAD1 151906Z 05013KT 27/15 A2995 RMK A01 T02740152  RH  047%=      5-min Rain = 0
KAD1 151907Z 04013KT 27/15 A2995 RMK A01 T02740147  RH  046%=      5-min Rain = 0
KAD1 151908Z 02012KT 27/15 A2995 RMK A01 T02740148  RH  046%=      5-min Rain = 0
KAD1 151909Z 03011KT 27/15 A2995 RMK A01 T02740150  RH  047%=      5-min Rain = 0
KAD1 151910Z 07014KT 28/16 A2995 RMK A01 T02760155  RH  048%=      5-min Rain = 0
KAD1 151911Z 07012KT 28/15 A2995 RMK A01 T02770153  RH  047%=      5-min Rain = 0
KAD1 151912Z 06015G20KT 28/15 A2995 RMK A01 T02770153  RH  047%=      5-min Rain = 0
KAD1 151913Z 05014KT 28/15 A2995 RMK A01 T02770146  RH  045%=      5-min Rain = 0
KAD1 151914Z 06013KT 28/14 A2995 RMK A01 T02750143  RH  044%=      5-min Rain = 0
KAD1 151915Z 06011KT 27/15 A2995 RMK A01 T02730146  RH  046%=      5-min Rain = 0
KAD1 151916Z 06011KT 27/15 A2995 RMK A01 T02730149  RH  047%=      5-min Rain = 0
KAD1 151917Z 05010KT 28/15 A2995 RMK A01 T02760151  RH  047%=      5-min Rain = 0
KAD1 151918Z 05014KT 28/15 A2995 RMK A01 T02790154  RH  047%=      5-min Rain = 0
KAD1 151919Z 06013KT 28/15 A2995 RMK A01 T02800154  RH  046%=      5-min Rain = 0
KAD1 151920Z 05011KT 28/15 A2995 RMK A01 T02780150  RH  046%=      5-min Rain = 0
KAD1 151921Z 05014KT 28/15 A2995 RMK A01 T02760153  RH  047%=      5-min Rain = 0
KAD1 151922Z 05013KT 28/15 A2995 RMK A01 T02760152  RH  047%=      5-min Rain = 0
KAD1 151923Z 05013KT 28/15 A2995 RMK A01 T02760153  RH  047%=      5-min Rain = 0
KAD1 151924Z 04013KT 28/15 A2995 RMK A01 T02750146  RH  045%=      5-min Rain = 0
KAD1 151925Z 04011KT 27/14 A2995 RMK A01 T02730144  RH  045%=      5-min Rain = 0
KAD1 151926Z 06014KT 27/15 A2995 RMK A01 T02730150  RH  047%=      5-min Rain = 0
KAD1 151927Z 07013KT 28/15 A2995 RMK A01 T02750151  RH  047%=      5-min Rain = 0
KAD1 151928Z 05010KT 28/15 A2995 RMK A01 T02750148  RH  046%=      5-min Rain = 0
KAD1 151929Z 04010G15KT 28/15 A2995 RMK A01 T02750150  RH  046%=      5-min Rain = 0
KAD1 151930Z 05012KT 28/14 A2995 RMK A01 T02750144  RH  045%=      5-min Rain = 0
KAD1 151931Z 06013KT 28/15 A2995 RMK A01 T02750150  RH  046%=      5-min Rain = 0
KAD1 151932Z 04010KT 27/15 A2995 RMK A01 T02740148  RH  046%=      5-min Rain = 0
KAD1 151933Z 03011KT 27/15 A2994 RMK A01 T02720149  RH  047%=      5-min Rain = 0
KAD1 151934Z 06010KT 27/15 A2995 RMK A01 T02690151  RH  048%=      5-min Rain = 0
KAD1 151935Z 06011KT 27/15 A2994 RMK A01 T02700152  RH  048%=      5-min Rain = 0
KAD1 151936Z 06011KT 27/15 A2994 RMK A01 T02710153  RH  048%=      5-min Rain = 0
KAD1 151937Z 04010KT 27/15 A2994 RMK A01 T02710150  RH  047%=      5-min Rain = 0
KAD1 151938Z 03012KT 27/15 A2994 RMK A01 T02710145  RH  046%=      5-min Rain = 0
KAD1 151939Z 04012KT 27/15 A2994 RMK A01 T02720151  RH  047%=      5-min Rain = 0
KAD1 151940Z 05013KT 28/15 A2994 RMK A01 T02750154  RH  048%=      5-min Rain = 0
KAD1 151941Z 05013KT 28/15 A2994 RMK A01 T02750150  RH  046%=      5-min Rain = 0
KAD1 151942Z 04012KT 27/15 A2994 RMK A01 T02740150  RH  046%=      5-min Rain = 0
KAD1 151943Z 04011KT 27/15 A2994 RMK A01 T02740147  RH  046%=      5-min Rain = 0
KAD1 151944Z 06011KT 27/15 A2994 RMK A01 T02740149  RH  047%=      5-min Rain = 0
KAD1 151945Z 05013KT 27/15 A2994 RMK A01 T02730149  RH  047%=      5-min Rain = 0
KAD1 151946Z 05013KT 27/15 A2994 RMK A01 T02730150  RH  047%=      5-min Rain = 0
KAD1 151947Z 05014KT 28/15 A2994 RMK A01 T02750147  RH  046%=      5-min Rain = 0
KAD1 151948Z 06013KT 27/15 A2994 RMK A01 T02740148  RH  046%=      5-min Rain = 0
KAD1 151949Z 06013KT 27/14 A2994 RMK A01 T02730143  RH  045%=      5-min Rain = 0
KAD1 151950Z 06010KT 27/14 A2994 RMK A01 T02730144  RH  045%=      5-min Rain = 0
KAD1 151951Z 05011KT 28/15 A2994 RMK A01 T02750149  RH  046%=      5-min Rain = 0
KAD1 151952Z 06012KT 28/15 A2994 RMK A01 T02760145  RH  045%=      5-min Rain = 0
KAD1 151953Z 06012KT 28/15 A2994 RMK A01 T02760146  RH  045%=      5-min Rain = 0
KAD1 151954Z 05011KT 28/15 A2994 RMK A01 T02760149  RH  046%=      5-min Rain = 0
KAD1 151955Z 05012KT 28/15 A2994 RMK A01 T02770149  RH  046%=      5-min Rain = 0
KAD1 151956Z 04012KT 28/14 A2994 RMK A01 T02780144  RH  044%=      5-min Rain = 0
KAD1 151957Z 06012KT 28/15 A2994 RMK A01 T02780147  RH  045%=      5-min Rain = 0
KAD1 151958Z 06012KT 28/15 A2994 RMK A01 T02780150  RH  046%=      5-min Rain = 0
KAD1 151959Z 07015KT 28/15 A2994 RMK A01 T02770145  RH  044%=      5-min Rain = 0
KAD1 152000Z 06014KT 27/14 A2994 RMK A01 T02740139  RH  044%=      5-min Rain = 0
KAD1 152001Z 07010G15KT 27/14 A2994 RMK A01 T02720136  RH  043%=      5-min Rain = 0
KAD1 152002Z 06010KT 27/14 A2994 RMK A01 T02710139  RH  044%=      5-min Rain = 0
KAD1 152003Z 05011KT 28/15 A2994 RMK A01 T02750151  RH  047%=      5-min Rain = 0
KAD1 152004Z 05014KT 28/15 A2994 RMK A01 T02800153  RH  046%=      5-min Rain = 0
KAD1 152005Z 05010KT 28/15 A2994 RMK A01 T02810152  RH  045%=      5-min Rain = 0
KAD1 152006Z 05010KT 28/14 A2994 RMK A01 T02810140  RH  042%=      5-min Rain = 0
KAD1 152007Z 06012G17KT 28/15 A2994 RMK A01 T02800146  RH  044%=      5-min Rain = 0
KAD1 152008Z 06015KT 28/14 A2994 RMK A01 T02800144  RH  044%=      5-min Rain = 0
KAD1 152009Z 06010KT 28/14 A2994 RMK A01 T02780140  RH  043%=      5-min Rain = 0
KAD1 152010Z 05012KT 28/15 A2994 RMK A01 T02770147  RH  045%=      5-min Rain = 0
KAD1 152011Z 06016KT 28/14 A2994 RMK A01 T02780144  RH  044%=      5-min Rain = 0
KAD1 152012Z 06013KT 28/14 A2994 RMK A01 T02790141  RH  043%=      5-min Rain = 0
KAD1 152013Z 07012KT 28/14 A2994 RMK A01 T02790143  RH  043%=      5-min Rain = 0
KAD1 152014Z 07011KT 28/15 A2994 RMK A01 T02800148  RH  044%=      5-min Rain = 0
KAD1 152015Z 05014KT 28/15 A2994 RMK A01 T02810145  RH  043%=      5-min Rain = 0
KAD1 152016Z 06014KT 28/15 A2994 RMK A01 T02800146  RH  044%=      5-min Rain = 0
KAD1 152017Z 06017KT 28/15 A2994 RMK A01 T02800150  RH  045%=      5-min Rain = 0
KAD1 152018Z 06015KT 28/15 A2994 RMK A01 T02810145  RH  043%=      5-min Rain = 0
KAD1 152019Z 07014KT 28/14 A2994 RMK A01 T02810144  RH  043%=      5-min Rain = 0
KAD1 152020Z 07014KT 28/14 A2994 RMK A01 T02820143  RH  042%=      5-min Rain = 0
KAD1 152021Z 05013KT 28/15 A2994 RMK A01 T02830146  RH  043%=      5-min Rain = 0
KAD1 152022Z 05013KT 28/14 A2994 RMK A01 T02840142  RH  042%=      5-min Rain = 0
KAD1 152023Z 05011KT 28/14 A2994 RMK A01 T02820139  RH  041%=      5-min Rain = 0
KAD1 152024Z 07015KT 28/15 A2994 RMK A01 T02820147  RH  044%=      5-min Rain = 0
KAD1 152025Z 07013KT 28/15 A2994 RMK A01 T02830145  RH  043%=      5-min Rain = 0
KAD1 152026Z 07015G20KT 28/15 A2994 RMK A01 T02840150  RH  044%=      5-min Rain = 0
KAD1 152027Z 07011G16KT 29/14 A2994 RMK A01 T02850142  RH  042%=      5-min Rain = 0
KAD1 152028Z 07014KT 28/14 A2994 RMK A01 T02830143  RH  042%=      5-min Rain = 0
KAD1 152029Z 07014KT 28/14 A2994 RMK A01 T02810137  RH  041%=      5-min Rain = 0
KAD1 152030Z 08011KT 28/14 A2994 RMK A01 T02800136  RH  041%=      5-min Rain = 0
KAD1 152031Z 07011G16KT 28/14 A2994 RMK A01 T02780142  RH  043%=      5-min Rain = 0
KAD1 152032Z 07015KT 28/15 A2994 RMK A01 T02810149  RH  044%=      5-min Rain = 0
KAD1 152033Z 08014KT 28/15 A2994 RMK A01 T02830145  RH  043%=      5-min Rain = 0
KAD1 152034Z 08010KT 28/14 A2994 RMK A01 T02820142  RH  042%=      5-min Rain = 0
KAD1 152035Z 06010G15KT 28/15 A2994 RMK A01 T02810149  RH  044%=      5-min Rain = 0
KAD1 152036Z 05014KT 28/15 A2994 RMK A01 T02840152  RH  044%=      5-min Rain = 0
KAD1 152037Z 03013KT 29/15 A2994 RMK A01 T02870147  RH  042%=      5-min Rain = 0
KAD1 152038Z 04013KT 29/15 A2993 RMK A01 T02870147  RH  042%=      5-min Rain = 0
KAD1 152039Z 05013KT 29/15 A2994 RMK A01 T02860148  RH  043%=      5-min Rain = 0
KAD1 152040Z 06015KT 29/15 A2994 RMK A01 T02860147  RH  043%=      5-min Rain = 0
KAD1 152041Z 06011KT 29/15 A2993 RMK A01 T02850153  RH  045%=      5-min Rain = 0
KAD1 152042Z 05017KT 29/15 A2993 RMK A01 T02860149  RH  043%=      5-min Rain = 0
KAD1 152043Z 07015KT 29/14 A2993 RMK A01 T02850140  RH  041%=      5-min Rain = 0
KAD1 152044Z 06011KT 28/14 A2993 RMK A01 T02820139  RH  041%=      5-min Rain = 0
KAD1 152045Z 04013KT 28/15 A2993 RMK A01 T02820146  RH  043%=      5-min Rain = 0
KAD1 152046Z 04012KT 29/14 A2993 RMK A01 T02860144  RH  042%=      5-min Rain = 0
KAD1 152047Z 04015KT 29/15 A2993 RMK A01 T02890147  RH  042%=      5-min Rain = 0
KAD1 152048Z 03015G22KT 29/14 A2993 RMK A01 T02890139  RH  040%=      5-min Rain = 0
KAD1 152049Z 05018KT 29/14 A2993 RMK A01 T02870144  RH  042%=      5-min Rain = 0
KAD1 152050Z 04016KT 29/14 A2993 RMK A01 T02860143  RH  042%=      5-min Rain = 0
KAD1 152051Z 06016KT 29/14 A2993 RMK A01 T02850140  RH  041%=      5-min Rain = 0
KAD1 152052Z 06012KT 28/14 A2993 RMK A01 T02840138  RH  041%=      5-min Rain = 0
KAD1 152053Z 06012KT 28/14 A2993 RMK A01 T02830139  RH  041%=      5-min Rain = 0
KAD1 152054Z 07011KT 28/13 A2993 RMK A01 T02820133  RH  040%=      5-min Rain = 0
KAD1 152055Z 06014KT 28/14 A2993 RMK A01 T02800140  RH  042%=      5-min Rain = 0
KAD1 152056Z 05017KT 28/14 A2993 RMK A01 T02790141  RH  043%=      5-min Rain = 0
KAD1 152057Z 04017KT 28/14 A2993 RMK A01 T02800141  RH  043%=      5-min Rain = 0
KAD1 152058Z 04013G19KT 28/14 A2993 RMK A01 T02810139  RH  042%=      5-min Rain = 0
KAD1 152059Z 05013KT 28/14 A2993 RMK A01 T02810143  RH  043%=      5-min Rain = 0
KAD1 152100Z 06016KT 28/14 A2993 RMK A01 T02810143  RH  043%=      5-min Rain = 0
KAD1 152101Z 06014KT 28/14 A2993 RMK A01 T02810140  RH  042%=      5-min Rain = 0
KAD1 152102Z 06012KT 28/14 A2993 RMK A01 T02780137  RH  042%=      5-min Rain = 0
KAD1 152103Z 05013KT 28/14 A2993 RMK A01 T02760138  RH  043%=      5-min Rain = 0
KAD1 152104Z 06015KT 27/13 A2993 RMK A01 T02740131  RH  041%=      5-min Rain = 0
KAD1 152105Z 06015KT 27/13 A2993 RMK A01 T02730131  RH  041%=      5-min Rain = 0
KAD1 152106Z 06013KT 27/13 A2993 RMK A01 T02720132  RH  042%=      5-min Rain = 0
KAD1 152107Z 06012KT 27/13 A2993 RMK A01 T02720132  RH  042%=      5-min Rain = 0
KAD1 152108Z 06013KT 27/13 A2993 RMK A01 T02710132  RH  042%=      5-min Rain = 0
KAD1 152109Z 06013KT 27/13 A2993 RMK A01 T02710134  RH  043%=      5-min Rain = 0
KAD1 152110Z 06012KT 27/13 A2993 RMK A01 T02710134  RH  043%=      5-min Rain = 0
KAD1 152111Z 06014KT 27/13 A2993 RMK A01 T02700133  RH  043%=      5-min Rain = 0
KAD1 152112Z 05011KT 27/13 A2993 RMK A01 T02700133  RH  043%=      5-min Rain = 0
KAD1 152113Z 06011KT 27/14 A2993 RMK A01 T02690137  RH  044%=      5-min Rain = 0
KAD1 152114Z 06013KT 27/14 A2993 RMK A01 T02690139  RH  045%=      5-min Rain = 0
KAD1 152115Z 06013KT 27/14 A2993 RMK A01 T02690139  RH  045%=      5-min Rain = 0
KAD1 152116Z 06014KT 27/14 A2993 RMK A01 T02690140  RH  045%=      5-min Rain = 0
KAD1 152117Z 05012KT 27/14 A2993 RMK A01 T02700139  RH  044%=      5-min Rain = 0
KAD1 152118Z 04012KT 27/14 A2993 RMK A01 T02690136  RH  044%=      5-min Rain = 0
KAD1 152119Z 05015KT 27/14 A2993 RMK A01 T02690136  RH  044%=      5-min Rain = 0
KAD1 152120Z 04014KT 27/14 A2993 RMK A01 T02690136  RH  044%=      5-min Rain = 0
KAD1 152121Z 04013KT 27/14 A2993 RMK A01 T02690139  RH  045%=      5-min Rain = 0
KAD1 152122Z 05013KT 27/14 A2993 RMK A01 T02690138  RH  045%=      5-min Rain = 0
KAD1 152123Z 04014KT 27/14 A2993 RMK A01 T02690139  RH  045%=      5-min Rain = 0
KAD1 152124Z 06012KT 27/14 A2993 RMK A01 T02690138  RH  044%=      5-min Rain = 0
KAD1 152125Z 05011G17KT 27/14 A2993 RMK A01 T02680139  RH  045%=      5-min Rain = 0
KAD1 152126Z 05014KT 27/14 A2993 RMK A01 T02680137  RH  044%=      5-min Rain = 0
KAD1 152127Z 04013KT 27/14 A2993 RMK A01 T02680136  RH  044%=      5-min Rain = 0
KAD1 152128Z 04012KT 27/14 A2993 RMK A01 T02680138  RH  045%=      5-min Rain = 0
KAD1 152129Z 03014KT 27/14 A2993 RMK A01 T02690138  RH  044%=      5-min Rain = 0
KAD1 152130Z 04013KT 27/14 A2993 RMK A01 T02690135  RH  043%=      5-min Rain = 0
KAD1 152131Z 04014KT 27/13 A2993 RMK A01 T02690134  RH  043%=      5-min Rain = 0
KAD1 152132Z 03013KT 27/14 A2993 RMK A01 T02680135  RH  044%=      5-min Rain = 0
KAD1 152133Z 05013KT 27/14 A2993 RMK A01 T02690138  RH  044%=      5-min Rain = 0
KAD1 152134Z 05014KT 27/14 A2993 RMK A01 T02680136  RH  044%=      5-min Rain = 0
KAD1 152135Z 05013KT 27/14 A2993 RMK A01 T02670136  RH  044%=      5-min Rain = 0
KAD1 152136Z 05011KT 27/14 A2993 RMK A01 T02660137  RH  045%=      5-min Rain = 0
KAD1 152137Z 04014KT 27/14 A2993 RMK A01 T02660137  RH  045%=      5-min Rain = 0
KAD1 152138Z 04013KT 27/14 A2993 RMK A01 T02660137  RH  045%=      5-min Rain = 0
KAD1 152139Z 04013KT 27/14 A2993 RMK A01 T02660138  RH  045%=      5-min Rain = 0
KAD1 152140Z 04012KT 27/14 A2992 RMK A01 T02650136  RH  045%=      5-min Rain = 0
KAD1 152141Z 04014KT 27/13 A2992 RMK A01 T02650134  RH  044%=      5-min Rain = 0
KAD1 152142Z 03014KT 27/13 A2992 RMK A01 T02650132  RH  044%=      5-min Rain = 0
KAD1 152143Z 04012KT 26/13 A2992 RMK A01 T02640133  RH  044%=      5-min Rain = 0
KAD1 152144Z 03011KT 26/14 A2992 RMK A01 T02640135  RH  045%=      5-min Rain = 0
KAD1 152145Z 03013KT 27/13 A2992 RMK A01 T02650133  RH  044%=      5-min Rain = 0
KAD1 152146Z 03013KT 26/13 A2992 RMK A01 T02640132  RH  044%=      5-min Rain = 0
KAD1 152147Z 03012KT 26/13 A2991 RMK A01 T02640133  RH  044%=      5-min Rain = 0
KAD1 152148Z 03012KT 26/14 A2991 RMK A01 T02640136  RH  045%=      5-min Rain = 0
KAD1 152149Z 04011KT 26/14 A2991 RMK A01 T02640135  RH  045%=      5-min Rain = 0
KAD1 152150Z 05015KT 26/14 A2991 RMK A01 T02640137  RH  046%=      5-min Rain = 0
KAD1 152151Z 04015KT 26/14 A2991 RMK A01 T02620136  RH  046%=      5-min Rain = 0
KAD1 152152Z 04012KT 26/14 A2991 RMK A01 T02610136  RH  046%=      5-min Rain = 0
KAD1 152153Z 05012KT 26/14 A2991 RMK A01 T02610137  RH  046%=      5-min Rain = 0
KAD1 152154Z 05012KT 26/14 A2991 RMK A01 T02600135  RH  046%=      5-min Rain = 0
KAD1 152155Z 06011KT 26/13 A2991 RMK A01 T02590134  RH  046%=      5-min Rain = 0
KAD1 152156Z 06012KT 26/13 A2991 RMK A01 T02590134  RH  046%=      5-min Rain = 0
KAD1 152157Z 06014KT 26/13 A2991 RMK A01 T02590133  RH  046%=      5-min Rain = 0
KAD1 152158Z 06015KT 26/13 A2991 RMK A01 T02580134  RH  046%=      5-min Rain = 0
KAD1 152159Z 07014KT 26/14 A2991 RMK A01 T02580135  RH  046%=      5-min Rain = 0
KAD1 152200Z 07015KT 26/14 A2991 RMK A01 T02580136  RH  047%=      5-min Rain = 0
KAD1 152201Z 07016KT 26/14 A2991 RMK A01 T02580135  RH  046%=      5-min Rain = 0
KAD1 152202Z 07014KT 26/13 A2991 RMK A01 T02580133  RH  046%=      5-min Rain = 0
KAD1 152203Z 07015KT 26/13 A2991 RMK A01 T02580134  RH  046%=      5-min Rain = 0
KAD1 152204Z 07013KT 26/13 A2991 RMK A01 T02570134  RH  046%=      5-min Rain = 0
KAD1 152205Z 07016KT 26/14 A2991 RMK A01 T02570135  RH  047%=      5-min Rain = 0
KAD1 152206Z 07018KT 26/13 A2991 RMK A01 T02570134  RH  047%=      5-min Rain = 0
KAD1 152207Z 07016KT 26/13 A2991 RMK A01 T02570133  RH  046%=      5-min Rain = 0
KAD1 152208Z 07016KT 26/13 A2991 RMK A01 T02570133  RH  046%=      5-min Rain = 0
KAD1 152209Z 07017KT 26/13 A2991 RMK A01 T02570133  RH  046%=      5-min Rain = 0
KAD1 152210Z 07015KT 26/13 A2991 RMK A01 T02570134  RH  047%=      5-min Rain = 0
KAD1 152211Z 07013KT 26/14 A2991 RMK A01 T02570136  RH  047%=      5-min Rain = 0
KAD1 152212Z 07014KT 26/14 A2991 RMK A01 T02560136  RH  048%=      5-min Rain = 0
KAD1 152213Z 08012KT 26/14 A2991 RMK A01 T02560137  RH  048%=      5-min Rain = 0
KAD1 152214Z 08012KT 26/14 A2991 RMK A01 T02560138  RH  048%=      5-min Rain = 0
KAD1 152215Z 08016KT 26/14 A2991 RMK A01 T02550135  RH  047%=      5-min Rain = 0
KAD1 152216Z 08016KT 26/13 A2991 RMK A01 T02550134  RH  047%=      5-min Rain = 0
KAD1 152217Z 08014KT 26/14 A2991 RMK A01 T02550135  RH  047%=      5-min Rain = 0
KAD1 152218Z 08014KT 26/14 A2991 RMK A01 T02550136  RH  048%=      5-min Rain = 0
KAD1 152219Z 08015KT 26/14 A2991 RMK A01 T02550136  RH  048%=      5-min Rain = 0
KAD1 152220Z 08014KT 26/14 A2991 RMK A01 T02550137  RH  048%=      5-min Rain = 0
KAD1 152221Z 08012KT 26/14 A2991 RMK A01 T02550136  RH  048%=      5-min Rain = 0
KAD1 152222Z 08010KT 26/14 A2991 RMK A01 T02550137  RH  048%=      5-min Rain = 0
KAD1 152223Z 08010KT 26/14 A2991 RMK A01 T02550138  RH  048%=      5-min Rain = 0
KAD1 152224Z 08010KT 25/14 A2991 RMK A01 T02540138  RH  049%=      5-min Rain = 0
KAD1 152225Z 08012KT 25/14 A2991 RMK A01 T02540138  RH  049%=      5-min Rain = 0
KAD1 152226Z 08012KT 25/14 A2992 RMK A01 T02530137  RH  049%=      5-min Rain = 0
KAD1 152227Z 08012KT 25/14 A2992 RMK A01 T02530138  RH  049%=      5-min Rain = 0
KAD1 152228Z 08010KT 25/14 A2992 RMK A01 T02540138  RH  049%=      5-min Rain = 0
KAD1 152229Z 08013KT 25/14 A2992 RMK A01 T02530139  RH  049%=      5-min Rain = 0
KAD1 152230Z 08014KT 25/14 A2992 RMK A01 T02540138  RH  049%=      5-min Rain = 0
KAD1 152231Z 08013KT 26/14 A2992 RMK A01 T02550139  RH  049%=      5-min Rain = 0
KAD1 152232Z 08014KT 26/14 A2992 RMK A01 T02550140  RH  049%=      5-min Rain = 0
KAD1 152233Z 08012KT 26/14 A2992 RMK A01 T02550140  RH  049%=      5-min Rain = 0
KAD1 152234Z 08013KT 26/14 A2992 RMK A01 T02550140  RH  049%=      5-min Rain = 0
KAD1 152235Z 08013KT 26/14 A2992 RMK A01 T02560140  RH  049%=      5-min Rain = 0
KAD1 152236Z 08013KT 26/14 A2992 RMK A01 T02560140  RH  049%=      5-min Rain = 0
KAD1 152237Z 08012KT 26/14 A2992 RMK A01 T02560141  RH  049%=      5-min Rain = 0
KAD1 152238Z 08012KT 26/14 A2992 RMK A01 T02570142  RH  049%=      5-min Rain = 0
KAD1 152239Z 08011KT 26/14 A2992 RMK A01 T02570142  RH  049%=      5-min Rain = 0
KAD1 152240Z 08010KT 26/14 A2992 RMK A01 T02570142  RH  049%=      5-min Rain = 0
KAD1 152241Z 08010KT 26/14 A2992 RMK A01 T02570143  RH  049%=      5-min Rain = 0
KAD1 152242Z 08010KT 26/14 A2992 RMK A01 T02570144  RH  050%=      5-min Rain = 0
KAD1 152243Z 08010KT 26/15 A2992 RMK A01 T02570145  RH  050%=      5-min Rain = 0
KAD1 152244Z 09010KT 26/15 A2992 RMK A01 T02570148  RH  051%=      5-min Rain = 0
KAD1 152245Z 08013KT 26/15 A2992 RMK A01 T02570151  RH  052%=      5-min Rain = 0
KAD1 152246Z 07013KT 26/15 A2992 RMK A01 T02570152  RH  052%=      5-min Rain = 0
KAD1 152247Z 08012KT 26/15 A2992 RMK A01 T02570154  RH  053%=      5-min Rain = 0
KAD1 152248Z 09013KT 26/15 A2992 RMK A01 T02570154  RH  053%=      5-min Rain = 0
KAD1 152249Z 09017KT 26/15 A2992 RMK A01 T02590154  RH  052%=      5-min Rain = 0
KAD1 152250Z 09017KT 26/15 A2992 RMK A01 T02600154  RH  052%=      5-min Rain = 0
KAD1 152251Z 09016KT 26/16 A2992 RMK A01 T02600155  RH  052%=      5-min Rain = 0
KAD1 152252Z 09017KT 26/16 A2992 RMK A01 T02600155  RH  052%=      5-min Rain = 0
KAD1 152253Z 10015KT 26/16 A2992 RMK A01 T02610155  RH  052%=      5-min Rain = 0
KAD1 152254Z 10014KT 26/16 A2992 RMK A01 T02620156  RH  052%=      5-min Rain = 0
KAD1 152255Z 10015KT 26/16 A2992 RMK A01 T02640156  RH  051%=      5-min Rain = 0
KAD1 152256Z 10017KT 26/16 A2992 RMK A01 T02640155  RH  051%=      5-min Rain = 0
KAD1 152257Z 10017KT 26/15 A2992 RMK A01 T02640154  RH  051%=      5-min Rain = 0
KAD1 152258Z 10015KT 26/15 A2991 RMK A01 T02630154  RH  051%=      5-min Rain = 0
KAD1 152259Z 10016KT 27/15 A2991 RMK A01 T02650153  RH  050%=      5-min Rain = 0
KAD1 152300Z 09016KT 27/15 A2991 RMK A01 T02650154  RH  050%=      5-min Rain = 0
KAD1 152301Z 09016KT 26/15 A2991 RMK A01 T02640154  RH  051%=      5-min Rain = 0
KAD1 152302Z 10016KT 26/15 A2991 RMK A01 T02630152  RH  050%=      5-min Rain = 0
KAD1 152303Z 10015KT 26/15 A2991 RMK A01 T02640151  RH  050%=      5-min Rain = 0
KAD1 152304Z 09013KT 27/15 A2991 RMK A01 T02650153  RH  050%=      5-min Rain = 0
KAD1 152305Z 09017KT 27/15 A2991 RMK A01 T02660152  RH  050%=      5-min Rain = 0
KAD1 152306Z 09014KT 27/15 A2991 RMK A01 T02680151  RH  049%=      5-min Rain = 0
KAD1 152307Z 10017KT 27/15 A2991 RMK A01 T02680152  RH  049%=      5-min Rain = 0
KAD1 152308Z 11019KT 27/15 A2991 RMK A01 T02670150  RH  049%=      5-min Rain = 0
KAD1 152309Z 11019KT 27/15 A299 RMK A01 T02670148  RH  048%=      5-min Rain = 0
KAD1 152310Z 11020KT 27/15 A299 RMK A01 T02670146  RH  047%=      5-min Rain = 0
KAD1 152311Z 11021KT 27/14 A299 RMK A01 T02680142  RH  046%=      5-min Rain = 0
KAD1 152312Z 10018KT 27/14 A2991 RMK A01 T02690144  RH  046%=      5-min Rain = 0
KAD1 152313Z 09018KT 27/14 A2991 RMK A01 T02690139  RH  045%=      5-min Rain = 0
KAD1 152314Z 09016KT 27/14 A2991 RMK A01 T02660135  RH  044%=      5-min Rain = 0
KAD1 152315Z 10016KT 27/14 A2991 RMK A01 T02650136  RH  045%=      5-min Rain = 0
KAD1 152316Z 10017KT 27/14 A2991 RMK A01 T02650139  RH  046%=      5-min Rain = 0
KAD1 152317Z 10018KT 27/14 A299 RMK A01 T02660143  RH  047%=      5-min Rain = 0
KAD1 152318Z 10019KT 27/15 A299 RMK A01 T02660147  RH  048%=      5-min Rain = 0
KAD1 152319Z 10020KT 27/15 A299 RMK A01 T02660149  RH  049%=      5-min Rain = 0
KAD1 152320Z 10019G25KT 27/15 A299 RMK A01 T02670149  RH  048%=      5-min Rain = 0
KAD1 152321Z 10021KT 27/14 A299 RMK A01 T02670143  RH  047%=      5-min Rain = 0
KAD1 152322Z 10021KT 27/15 A299 RMK A01 T02670145  RH  047%=      5-min Rain = 0
KAD1 152323Z 09019G24KT 27/15 A299 RMK A01 T02660146  RH  048%=      5-min Rain = 0
KAD1 152324Z 09019G24KT 27/15 A2989 RMK A01 T02660147  RH  048%=      5-min Rain = 0
KAD1 152325Z 09020KT 27/15 A2989 RMK A01 T02650151  RH  049%=      5-min Rain = 0
KAD1 152326Z 10020KT 27/15 A2989 RMK A01 T02650151  RH  049%=      5-min Rain = 0
KAD1 152327Z 10021KT 27/15 A2989 RMK A01 T02650148  RH  049%=      5-min Rain = 0
KAD1 152328Z 10019KT 27/15 A299 RMK A01 T02650147  RH  048%=      5-min Rain = 0
KAD1 152329Z 10023G28KT 27/15 A299 RMK A01 T02660149  RH  049%=      5-min Rain = 0
KAD1 152330Z 09024G29KT 27/15 A299 RMK A01 T02660152  RH  050%=      5-min Rain = 0
KAD1 152331Z 10023KT 27/15 A299 RMK A01 T02650154  RH  051%=      5-min Rain = 0
KAD1 152332Z 10023KT 26/16 A299 RMK A01 T02640155  RH  051%=      5-min Rain = 0
KAD1 152333Z 10022G27KT 26/15 A2991 RMK A01 T02640154  RH  051%=      5-min Rain = 0
KAD1 152334Z 10023KT 27/15 A2991 RMK A01 T02650154  RH  050%=      5-min Rain = 0
KAD1 152335Z 10022KT 27/16 A2991 RMK A01 T02660155  RH  050%=      5-min Rain = 0
KAD1 152336Z 10022G27KT 27/15 A2991 RMK A01 T02670153  RH  050%=      5-min Rain = 0
KAD1 152337Z 10020KT 27/15 A2991 RMK A01 T02670154  RH  050%=      5-min Rain = 0
KAD1 152338Z 10022KT 27/16 A2991 RMK A01 T02680158  RH  051%=      5-min Rain = 0
KAD1 152339Z 11024KT 27/16 A2991 RMK A01 T02680161  RH  052%=      5-min Rain = 0
KAD1 152340Z 11025KT 27/16 A2991 RMK A01 T02660163  RH  053%=      5-min Rain = 0
KAD1 152341Z 11023KT 27/16 A2991 RMK A01 T02650163  RH  054%=      5-min Rain = 0
KAD1 152342Z 11023G28KT 27/16 A2991 RMK A01 T02650164  RH  054%=      5-min Rain = 0
KAD1 152343Z 11023KT 27/16 A2992 RMK A01 T02650164  RH  054%=      5-min Rain = 0
KAD1 152344Z 11022KT 26/16 A2992 RMK A01 T02630164  RH  054%=      5-min Rain = 0
KAD1 152345Z 11022KT 26/16 A2991 RMK A01 T02620164  RH  055%=      5-min Rain = 0
KAD1 152346Z 11022KT 26/16 A2991 RMK A01 T02600164  RH  055%=      5-min Rain = 0
KAD1 152347Z 10022KT 26/16 A2991 RMK A01 T02590163  RH  055%=      5-min Rain = 0
KAD1 152348Z 10022KT 26/16 A2991 RMK A01 T02590164  RH  056%=      5-min Rain = 0
KAD1 152349Z 10022KT 26/17 A2991 RMK A01 T02590165  RH  056%=      5-min Rain = 0
KAD1 152350Z 11022KT 26/17 A2991 RMK A01 T02580165  RH  056%=      5-min Rain = 0
KAD1 152351Z 11020KT 26/17 A2991 RMK A01 T02580165  RH  057%=      5-min Rain = 0
KAD1 152352Z 10021KT 26/17 A2991 RMK A01 T02580166  RH  057%=      5-min Rain = 0
KAD1 152353Z 10018KT 26/17 A2991 RMK A01 T02580167  RH  057%=      5-min Rain = 0
KAD1 152354Z 11021KT 26/17 A2991 RMK A01 T02570166  RH  057%=      5-min Rain = 0
KAD1 152355Z 10019KT 26/17 A2991 RMK A01 T02570167  RH  057%=      5-min Rain = 0
KAD1 152356Z 11017G22KT 26/17 A2991 RMK A01 T02560166  RH  057%=      5-min Rain = 0
KAD1 152357Z 11016KT 26/17 A2991 RMK A01 T02570167  RH  058%=      5-min Rain = 0
KAD1 152358Z 11018KT 26/17 A2991 RMK A01 T02590168  RH  057%=      5-min Rain = 0
KAD1 152359Z 11020G25KT 26/17 A2991 RMK A01 T02590167  RH  057%=      5-min Rain = 0
KAD1 160000Z 11020KT 26/17 A299 RMK A01 T02580168  RH  057%=      5-min Rain = 0
KAD1 160001Z 11018KT 26/17 A299 RMK A01 T02580168  RH  057%=      5-min Rain = 0
KAD1 160002Z 11021KT 26/17 A299 RMK A01 T02570167  RH  058%=      5-min Rain = 0
KAD1 160003Z 10020KT 26/17 A299 RMK A01 T02570167  RH  057%=      5-min Rain = 0
KAD1 160004Z 10019KT 26/17 A299 RMK A01 T02560167  RH  058%=      5-min Rain = 0
KAD1 160005Z 11021KT 26/17 A299 RMK A01 T02560168  RH  058%=      5-min Rain = 0
KAD1 160006Z 11020KT 26/17 A299 RMK A01 T02550168  RH  059%=      5-min Rain = 0
KAD1 160007Z 11017KT 26/17 A299 RMK A01 T02550168  RH  059%=      5-min Rain = 0
KAD1 160008Z 10016KT 26/17 A2989 RMK A01 T02560169  RH  059%=      5-min Rain = 0
KAD1 160009Z 11017KT 26/17 A2989 RMK A01 T02570169  RH  058%=      5-min Rain = 0
KAD1 160010Z 10016KT 26/17 A2989 RMK A01 T02570169  RH  058%=      5-min Rain = 0
KAD1 160011Z 10017KT 26/17 A2989 RMK A01 T02570168  RH  058%=      5-min Rain = 0
KAD1 160012Z 10016KT 26/17 A2989 RMK A01 T02580168  RH  058%=      5-min Rain = 0
KAD1 160013Z 10016KT 26/17 A2989 RMK A01 T02590168  RH  057%=      5-min Rain = 0
KAD1 160014Z 11016KT 26/17 A2989 RMK A01 T02590166  RH  057%=      5-min Rain = 0
KAD1 160015Z 10015KT 26/16 A2989 RMK A01 T02590164  RH  056%=      5-min Rain = 0
KAD1 160016Z 10015KT 26/17 A2989 RMK A01 T02600166  RH  056%=      5-min Rain = 0
KAD1 160017Z 10015KT 26/17 A2989 RMK A01 T02610166  RH  056%=      5-min Rain = 0
KAD1 160018Z 10014KT 26/17 A299 RMK A01 T02620165  RH  055%=      5-min Rain = 0
KAD1 160019Z 11014KT 26/17 A299 RMK A01 T02620165  RH  055%=      5-min Rain = 0
KAD1 160020Z 10015KT 26/16 A299 RMK A01 T02620164  RH  055%=      5-min Rain = 0
KAD1 160021Z 11014KT 26/16 A299 RMK A01 T02610162  RH  054%=      5-min Rain = 0
KAD1 160022Z 11014KT 26/16 A299 RMK A01 T02610164  RH  055%=      5-min Rain = 0
KAD1 160023Z 12013KT 26/17 A299 RMK A01 T02620166  RH  056%=      5-min Rain = 0
KAD1 160024Z 12015KT 26/17 A299 RMK A01 T02630166  RH  055%=      5-min Rain = 0
KAD1 160025Z 12015KT 26/17 A299 RMK A01 T02630167  RH  056%=      5-min Rain = 0
KAD1 160026Z 13015KT 26/17 A299 RMK A01 T02620167  RH  056%=      5-min Rain = 0
KAD1 160027Z 12016KT 26/17 A299 RMK A01 T02630166  RH  055%=      5-min Rain = 0
KAD1 160028Z 12016KT 26/17 A299 RMK A01 T02630167  RH  056%=      5-min Rain = 0
KAD1 160029Z 13013KT 26/17 A299 RMK A01 T02620167  RH  056%=      5-min Rain = 0
KAD1 160030Z 12015KT 26/17 A299 RMK A01 T02620168  RH  056%=      5-min Rain = 0
KAD1 160031Z 12013KT 26/17 A299 RMK A01 T02620169  RH  056%=      5-min Rain = 0
KAD1 160032Z 11015KT 26/17 A299 RMK A01 T02630169  RH  056%=      5-min Rain = 0
KAD1 160033Z 11015KT 26/17 A299 RMK A01 T02640170  RH  056%=      5-min Rain = 0
KAD1 160034Z 11015KT 26/17 A299 RMK A01 T02630168  RH  056%=      5-min Rain = 0
KAD1 160035Z 11013KT 26/17 A2989 RMK A01 T02620169  RH  057%=      5-min Rain = 0
KAD1 160036Z 10013KT 26/17 A2989 RMK A01 T02620169  RH  057%=      5-min Rain = 0
KAD1 160037Z 09014KT 26/17 A2989 RMK A01 T02610170  RH  057%=      5-min Rain = 0
KAD1 160038Z 09014KT 26/17 A2989 RMK A01 T02590170  RH  058%=      5-min Rain = 0
KAD1 160039Z 09012KT 26/17 A2989 RMK A01 T02570170  RH  059%=      5-min Rain = 0
KAD1 160040Z 08012KT 26/17 A2989 RMK A01 T02570170  RH  059%=      5-min Rain = 0
KAD1 160041Z 08014KT 26/17 A2989 RMK A01 T02550170  RH  059%=      5-min Rain = 0
KAD1 160042Z 09014KT 26/17 A2989 RMK A01 T02550170  RH  059%=      5-min Rain = 0
KAD1 160043Z 09014KT 25/17 A2989 RMK A01 T02540169  RH  059%=      5-min Rain = 0
KAD1 160044Z 09013KT 25/17 A2989 RMK A01 T02540168  RH  059%=      5-min Rain = 0
KAD1 160045Z 08015KT 25/17 A2989 RMK A01 T02540169  RH  059%=      5-min Rain = 0
KAD1 160046Z 09014KT 25/17 A299 RMK A01 T02540169  RH  059%=      5-min Rain = 0
KAD1 160047Z 09013KT 25/17 A299 RMK A01 T02540169  RH  059%=      5-min Rain = 0
KAD1 160048Z 09013KT 25/17 A299 RMK A01 T02530169  RH  060%=      5-min Rain = 0
KAD1 160049Z 08017KT 25/17 A299 RMK A01 T02530171  RH  060%=      5-min Rain = 0
KAD1 160050Z 08016KT 25/17 A2991 RMK A01 T02520170  RH  061%=      5-min Rain = 0
KAD1 160051Z 09015KT 25/17 A2991 RMK A01 T02500170  RH  061%=      5-min Rain = 0
KAD1 160052Z 09015KT 25/17 A2991 RMK A01 T02500171  RH  061%=      5-min Rain = 0
KAD1 160053Z 09014KT 25/17 A2991 RMK A01 T02500171  RH  061%=      5-min Rain = 0
KAD1 160054Z 10015KT 25/17 A2991 RMK A01 T02500172  RH  062%=      5-min Rain = 0
KAD1 160055Z 10015KT 25/17 A2991 RMK A01 T02500170  RH  061%=      5-min Rain = 0
KAD1 160056Z 09016KT 25/17 A2991 RMK A01 T02510169  RH  061%=      5-min Rain = 0
KAD1 160057Z 09017KT 25/17 A2991 RMK A01 T02500170  RH  061%=      5-min Rain = 0
KAD1 160058Z 09018KT 25/17 A2991 RMK A01 T02490170  RH  062%=      5-min Rain = 0
KAD1 160059Z 09017KT 25/17 A2991 RMK A01 T02480170  RH  062%=      5-min Rain = 0
KAD1 160100Z 09017KT 25/17 A2991 RMK A01 T02470168  RH  062%=      5-min Rain = 0
KAD1 160101Z 09016KT 25/17 A299 RMK A01 T02460167  RH  061%=      5-min Rain = 0
KAD1 160102Z 09016KT 25/17 A299 RMK A01 T02460167  RH  062%=      5-min Rain = 0
KAD1 160103Z 09014KT 25/17 A299 RMK A01 T02450167  RH  061%=      5-min Rain = 0
KAD1 160104Z 08013KT 25/17 A299 RMK A01 T02450167  RH  061%=      5-min Rain = 0
KAD1 160105Z 09015KT 24/17 A299 RMK A01 T02440165  RH  061%=      5-min Rain = 0
KAD1 160106Z 09015KT 24/16 A299 RMK A01 T02440164  RH  061%=      5-min Rain = 0
KAD1 160107Z 09014KT 24/16 A299 RMK A01 T02430164  RH  061%=      5-min Rain = 0
KAD1 160108Z 09013KT 24/16 A299 RMK A01 T02430163  RH  061%=      5-min Rain = 0
KAD1 160109Z 09012KT 24/16 A299 RMK A01 T02420162  RH  061%=      5-min Rain = 0
KAD1 160110Z 07011KT 24/16 A299 RMK A01 T02410162  RH  061%=      5-min Rain = 0
KAD1 160111Z 07012KT 24/16 A299 RMK A01 T02410163  RH  062%=      5-min Rain = 0
KAD1 160112Z 08013KT 24/16 A299 RMK A01 T02400161  RH  061%=      5-min Rain = 0
KAD1 160113Z 07014KT 24/16 A299 RMK A01 T02400157  RH  060%=      5-min Rain = 0
KAD1 160114Z 07013KT 24/15 A299 RMK A01 T02400154  RH  059%=      5-min Rain = 0
KAD1 160115Z 07012KT 24/15 A2989 RMK A01 T02400151  RH  058%=      5-min Rain = 0
KAD1 160116Z 07011KT 24/15 A2989 RMK A01 T02390151  RH  058%=      5-min Rain = 0
KAD1 160117Z 07011KT 24/15 A2989 RMK A01 T02390148  RH  057%=      5-min Rain = 0
KAD1 160118Z 06009KT 24/15 A2989 RMK A01 T02390149  RH  057%=      5-min Rain = 0
KAD1 160119Z 07009KT 24/15 A2989 RMK A01 T02390154  RH  059%=      5-min Rain = 0
KAD1 160120Z 06008KT 24/16 A2989 RMK A01 T02370155  RH  060%=      5-min Rain = 0
KAD1 160121Z 07007KT 24/16 A2989 RMK A01 T02370157  RH  061%=      5-min Rain = 0
KAD1 160122Z 06006KT 24/16 A2989 RMK A01 T02360157  RH  061%=      5-min Rain = 0
KAD1 160123Z 05005KT 24/16 A2989 RMK A01 T02350157  RH  061%=      5-min Rain = 0
KAD1 160124Z 04007KT 23/16 A2989 RMK A01 T02340155  RH  061%=      5-min Rain = 0
KAD1 160125Z 03006KT 23/15 A2989 RMK A01 T02340148  RH  058%=      5-min Rain = 0
KAD1 160126Z 01006KT 23/15 A299 RMK A01 T02340149  RH  059%=      5-min Rain = 0
KAD1 160127Z 01007KT 24/15 A299 RMK A01 T02350149  RH  059%=      5-min Rain = 0
KAD1 160128Z 01008KT 24/15 A2991 RMK A01 T02360145  RH  057%=      5-min Rain = 0
KAD1 160129Z 01010KT 24/14 A2991 RMK A01 T02360142  RH  055%=      5-min Rain = 0
KAD1 160130Z 36010KT 24/14 A2991 RMK A01 T02370139  RH  054%=      5-min Rain = 0
KAD1 160131Z 35011KT 24/14 A2992 RMK A01 T02380143  RH  055%=      5-min Rain = 0
KAD1 160132Z 35012KT 24/15 A2992 RMK A01 T02390148  RH  057%=      5-min Rain = 0
KAD1 160133Z 34011KT 24/15 A2993 RMK A01 T02380152  RH  059%=      5-min Rain = 0
KAD1 160134Z 34014G19KT 24/16 A2993 RMK A01 T02380155  RH  059%=      5-min Rain = 0
KAD1 160135Z 34020KT 24/14 A2993 RMK A01 T02370141  RH  055%=      5-min Rain = 0
KAD1 160136Z 33022KT 23/11 A2994 RMK A01 T02330109  RH  046%=      5-min Rain = 0
KAD1 160137Z 34020G25KT 23/09 A2994 RMK A01 T02260094  RH  043%=      5-min Rain = 0
KAD1 160138Z 34017KT 22/09 A2994 RMK A01 T02220092  RH  043%=      5-min Rain = 0
KAD1 160139Z 34016KT 22/09 A2995 RMK A01 T02200092  RH  044%=      5-min Rain = 0
KAD1 160140Z 34020KT 22/09 A2995 RMK A01 T02190089  RH  043%=      5-min Rain = 0
KAD1 160141Z 35018KT 22/09 A2995 RMK A01 T02180086  RH  043%=      5-min Rain = 0
KAD1 160142Z 35021KT 22/09 A2996 RMK A01 T02180087  RH  043%=      5-min Rain = 0
KAD1 160143Z 35025G31KT 22/09 A2996 RMK A01 T02170089  RH  044%=      5-min Rain = 0
KAD1 160144Z 35024G30KT 22/09 A2996 RMK A01 T02150091  RH  045%=      5-min Rain = 0
KAD1 160145Z 35024G30KT 21/09 A2996 RMK A01 T02120092  RH  046%=      5-min Rain = 0
KAD1 160146Z 00025G31KT 21/10 A2996 RMK A01 T02070096  RH  049%=      5-min Rain = 0
KAD1 160147Z 00027KT 20/10 A2996 RMK A01 T01990103  RH  054%=      5-min Rain = 0
KAD1 160148Z 00023G28KT 19/11 A2996 RMK A01 T01910105  RH  057%=      5-min Rain = 0
KAD1 160149Z 00019KT 19/10 A2996 RMK A01 T01860104  RH  059%=      5-min Rain = 0
KAD1 160150Z 01016KT 19/10 A2995 RMK A01 T01850104  RH  059%=      5-min Rain = 0
KAD1 160151Z 01017G22KT 18/10 A2996 RMK A01 T01840104  RH  059%=      5-min Rain = 0
KAD1 160152Z 01020KT 18/11 A2996 RMK A01 T01830106  RH  061%=      5-min Rain = 0
KAD1 160153Z 01022G27KT 18/11 A2996 RMK A01 T01800107  RH  062%=      5-min Rain = 0
KAD1 160154Z 01023KT 18/11 A2996 RMK A01 T01760109  RH  065%=      5-min Rain = 0
KAD1 160155Z 01025KT 17/12 A2997 RMK A01 T01730115  RH  069%=      5-min Rain = 0
KAD1 160156Z 01021KT 17/12 A2997 RMK A01 T01670120  RH  074%=      5-min Rain = 0
KAD1 160157Z 01020KT 16/12 A2996 RMK A01 T01620121  RH  077%=      5-min Rain = 0
KAD1 160158Z 01021KT 16/12 A2995 RMK A01 T01600122  RH  078%=      5-min Rain = 0
KAD1 160159Z 01019KT 16/12 A2995 RMK A01 T01590122  RH  079%=      5-min Rain = 0
KAD1 160200Z 01020KT 16/12 A2994 RMK A01 T01590121  RH  078%=      5-min Rain = 0
KAD1 160201Z 02019KT 16/12 A2994 RMK A01 T01590122  RH  079%=      5-min Rain = 0
KAD1 160202Z 02019KT 16/12 A2993 RMK A01 T01590123  RH  079%=      5-min Rain = 0
KAD1 160203Z 02018KT 16/12 A2993 RMK A01 T01610123  RH  078%=      5-min Rain = 0
KAD1 160204Z 02016KT 16/12 A2993 RMK A01 T01620123  RH  078%=      5-min Rain = 0
KAD1 160205Z 02016KT 16/12 A2993 RMK A01 T01620124  RH  078%=      5-min Rain = 0
KAD1 160206Z 02016KT 16/13 A2993 RMK A01 T01620125  RH  078%=      5-min Rain = 0
KAD1 160207Z 02017KT 16/13 A2994 RMK A01 T01630127  RH  079%=      5-min Rain = 0
KAD1 160208Z 02017KT 16/13 A2994 RMK A01 T01620128  RH  080%=      5-min Rain = 0
KAD1 160209Z 02017G22KT 16/13 A2995 RMK A01 T01610130  RH  082%=      5-min Rain = 0
KAD1 160210Z 02022KT 16/13 A2995 RMK A01 T01570128  RH  083%=      5-min Rain = 0
KAD1 160211Z 02023KT 15/13 A2995 RMK A01 T01520125  RH  084%=      5-min Rain = 0
KAD1 160212Z 02023KT 15/12 A2995 RMK A01 T01490123  RH  084%=      5-min Rain = 0
KAD1 160213Z 01023KT 15/12 A2995 RMK A01 T01480122  RH  084%=      5-min Rain = 0
KAD1 160214Z 01020KT 15/12 A2995 RMK A01 T01480121  RH  084%=      5-min Rain = 0
KAD1 160215Z 01021KT 15/12 A2995 RMK A01 T01480120  RH  083%=      5-min Rain = 0
KAD1 160216Z 01021KT 15/12 A2995 RMK A01 T01500117  RH  081%=      5-min Rain = 0
KAD1 160217Z 02017G22KT 15/11 A2995 RMK A01 T01510114  RH  079%=      5-min Rain = 0
KAD1 160218Z 02015KT 15/12 A2995 RMK A01 T01520116  RH  079%=      5-min Rain = 0
KAD1 160219Z 01016KT 15/12 A2996 RMK A01 T01510116  RH  079%=      5-min Rain = 0
KAD1 160220Z 00019KT 15/11 A2996 RMK A01 T01520114  RH  078%=      5-min Rain = 0
KAD1 160221Z 36017KT 15/11 A2996 RMK A01 T01540112  RH  076%=      5-min Rain = 0
KAD1 160222Z 01016KT 16/11 A2996 RMK A01 T01560112  RH  075%=      5-min Rain = 0
KAD1 160223Z 01016KT 16/11 A2995 RMK A01 T01560112  RH  075%=      5-min Rain = 0
KAD1 160224Z 01017KT 16/11 A2996 RMK A01 T01570113  RH  075%=      5-min Rain = 0
KAD1 160225Z 01017KT 16/11 A2995 RMK A01 T01570113  RH  075%=      5-min Rain = 0
KAD1 160226Z 02015KT 16/11 A2995 RMK A01 T01580114  RH  075%=      5-min Rain = 0
KAD1 160227Z 01016KT 16/12 A2995 RMK A01 T01580115  RH  076%=      5-min Rain = 0
KAD1 160228Z 02015KT 16/11 A2995 RMK A01 T01590113  RH  074%=      5-min Rain = 0
KAD1 160229Z 01016KT 16/11 A2995 RMK A01 T01600113  RH  073%=      5-min Rain = 0
KAD1 160230Z 01017KT 16/11 A2995 RMK A01 T01620111  RH  072%=      5-min Rain = 0
KAD1 160231Z 01016KT 16/11 A2995 RMK A01 T01640112  RH  071%=      5-min Rain = 0
KAD1 160232Z 02017KT 17/11 A2995 RMK A01 T01650112  RH  071%=      5-min Rain = 0
KAD1 160233Z 01016KT 17/11 A2995 RMK A01 T01670111  RH  069%=      5-min Rain = 0
KAD1 160234Z 01017KT 17/11 A2995 RMK A01 T01680111  RH  069%=      5-min Rain = 0
KAD1 160235Z 01016KT 17/11 A2995 RMK A01 T01690112  RH  069%=      5-min Rain = 0
KAD1 160236Z 01014KT 17/11 A2995 RMK A01 T01690113  RH  070%=      5-min Rain = 0
KAD1 160237Z 01013KT 17/11 A2995 RMK A01 T01690114  RH  070%=      5-min Rain = 0
KAD1 160238Z 01013KT 17/12 A2995 RMK A01 T01690115  RH  071%=      5-min Rain = 0
KAD1 160239Z 01014KT 17/12 A2995 RMK A01 T01680116  RH  071%=      5-min Rain = 0
KAD1 160240Z 01012KT 17/12 A2995 RMK A01 T01680116  RH  072%=      5-min Rain = 0
KAD1 160241Z 01012KT 17/12 A2995 RMK A01 T01680116  RH  071%=      5-min Rain = 0
KAD1 160242Z 01012KT 17/11 A2995 RMK A01 T01680114  RH  070%=      5-min Rain = 0
KAD1 160243Z 01011KT 17/12 A2995 RMK A01 T01690116  RH  071%=      5-min Rain = 0
KAD1 160244Z 01010KT 17/12 A2995 RMK A01 T01690117  RH  071%=      5-min Rain = 0
KAD1 160245Z 01011KT 17/12 A2996 RMK A01 T01680117  RH  072%=      5-min Rain = 0
KAD1 160246Z 01012KT 17/12 A2996 RMK A01 T01680117  RH  072%=      5-min Rain = 0
KAD1 160247Z 01012KT 17/12 A2995 RMK A01 T01680117  RH  072%=      5-min Rain = 0
KAD1 160248Z 01011KT 17/12 A2995 RMK A01 T01680117  RH  072%=      5-min Rain = 0
KAD1 160249Z 02013KT 17/12 A2995 RMK A01 T01680117  RH  072%=      5-min Rain = 0
KAD1 160250Z 02012KT 17/12 A2995 RMK A01 T01680116  RH  071%=      5-min Rain = 0
KAD1 160251Z 02012KT 17/12 A2995 RMK A01 T01690115  RH  070%=      5-min Rain = 0
KAD1 160252Z 00012KT 17/11 A2995 RMK A01 T01710112  RH  068%=      5-min Rain = 0
KAD1 160253Z 01011KT 17/11 A2995 RMK A01 T01730111  RH  067%=      5-min Rain = 0
KAD1 160254Z 00011KT 18/11 A2995 RMK A01 T01750109  RH  065%=      5-min Rain = 0
KAD1 160255Z 00011KT 18/11 A2995 RMK A01 T01770108  RH  064%=      5-min Rain = 0
KAD1 160256Z 00012KT 18/11 A2995 RMK A01 T01780107  RH  063%=      5-min Rain = 0
KAD1 160257Z 36010KT 18/10 A2995 RMK A01 T01800104  RH  061%=      5-min Rain = 0
KAD1 160258Z 36012G17KT 18/11 A2995 RMK A01 T01800105  RH  061%=      5-min Rain = 0
KAD1 160259Z 00013KT 18/10 A2995 RMK A01 T01820100  RH  059%=      5-min Rain = 0
KAD1 160300Z 00011KT 18/10 A2995 RMK A01 T01840100  RH  058%=      5-min Rain = 0
KAD1 160301Z 01010KT 19/10 A2995 RMK A01 T01850102  RH  058%=      5-min Rain = 0
KAD1 160302Z 01011KT 19/10 A2995 RMK A01 T01850103  RH  059%=      5-min Rain = 0
KAD1 160303Z 01010KT 19/10 A2995 RMK A01 T01850101  RH  058%=      5-min Rain = 0
KAD1 160304Z 01008KT 18/10 A2995 RMK A01 T01840104  RH  060%=      5-min Rain = 0
KAD1 160305Z 02010KT 18/10 A2995 RMK A01 T01830101  RH  059%=      5-min Rain = 0
KAD1 160306Z 01008KT 18/10 A2995 RMK A01 T01830102  RH  059%=      5-min Rain = 0
KAD1 160307Z 01008KT 18/10 A2995 RMK A01 T01830103  RH  060%=      5-min Rain = 0
KAD1 160308Z 00009KT 18/10 A2995 RMK A01 T01830102  RH  059%=      5-min Rain = 0
KAD1 160309Z 36010KT 18/10 A2995 RMK A01 T01830100  RH  058%=      5-min Rain = 0
KAD1 160310Z 35011KT 19/10 A2995 RMK A01 T01850100  RH  057%=      5-min Rain = 0
KAD1 160311Z 35011KT 19/10 A2995 RMK A01 T01860099  RH  057%=      5-min Rain = 0
KAD1 160312Z 00011KT 19/10 A2995 RMK A01 T01860098  RH  056%=      5-min Rain = 0
KAD1 160313Z 36012KT 19/10 A2995 RMK A01 T01870097  RH  056%=      5-min Rain = 0
KAD1 160314Z 36011KT 19/10 A2995 RMK A01 T01880097  RH  056%=      5-min Rain = 0
KAD1 160315Z 36011KT 19/10 A2995 RMK A01 T01880097  RH  055%=      5-min Rain = 0
KAD1 160316Z 36011KT 19/10 A2995 RMK A01 T01880096  RH  055%=      5-min Rain = 0
KAD1 160317Z 35010KT 19/10 A2995 RMK A01 T01890096  RH  055%=      5-min Rain = 0
KAD1 160318Z 36009KT 19/10 A2995 RMK A01 T01890096  RH  055%=      5-min Rain = 0
KAD1 160319Z 35008KT 19/10 A2995 RMK A01 T01890097  RH  055%=      5-min Rain = 0
KAD1 160320Z 35009KT 19/10 A2995 RMK A01 T01890096  RH  055%=      5-min Rain = 0
KAD1 160321Z 34010KT 19/10 A2995 RMK A01 T01890095  RH  054%=      5-min Rain = 0
KAD1 160322Z 35011KT 19/09 A2995 RMK A01 T01890094  RH  054%=      5-min Rain = 0
KAD1 160323Z 36008KT 19/10 A2995 RMK A01 T01900095  RH  054%=      5-min Rain = 0
KAD1 160324Z 35009KT 19/10 A2995 RMK A01 T01900095  RH  054%=      5-min Rain = 0
KAD1 160325Z 35010KT 19/09 A2995 RMK A01 T01900094  RH  054%=      5-min Rain = 0
KAD1 160326Z 35010KT 19/09 A2995 RMK A01 T01900091  RH  053%=      5-min Rain = 0
KAD1 160327Z 34010KT 19/09 A2995 RMK A01 T01910090  RH  052%=      5-min Rain = 0
KAD1 160328Z 35009KT 19/09 A2995 RMK A01 T01920089  RH  051%=      5-min Rain = 0
KAD1 160329Z 35008KT 19/09 A2996 RMK A01 T01930091  RH  052%=      5-min Rain = 0
KAD1 160330Z 35008KT 19/09 A2996 RMK A01 T01930093  RH  052%=      5-min Rain = 0
KAD1 160331Z 35009KT 19/09 A2996 RMK A01 T01920091  RH  052%=      5-min Rain = 0
KAD1 160332Z 35009KT 19/09 A2996 RMK A01 T01920091  RH  052%=      5-min Rain = 0
KAD1 160333Z 34010KT 19/09 A2996 RMK A01 T01920091  RH  052%=      5-min Rain = 0
KAD1 160334Z 34011KT 19/09 A2996 RMK A01 T01920090  RH  052%=      5-min Rain = 0
KAD1 160335Z 34010KT 19/09 A2996 RMK A01 T01920089  RH  051%=      5-min Rain = 0
KAD1 160336Z 36010KT 19/09 A2996 RMK A01 T01930085  RH  050%=      5-min Rain = 0
KAD1 160337Z 36010KT 19/09 A2996 RMK A01 T01940085  RH  049%=      5-min Rain = 0
KAD1 160338Z 00010KT 20/08 A2996 RMK A01 T01950084  RH  049%=      5-min Rain = 0
KAD1 160339Z 00012KT 20/09 A2996 RMK A01 T01950085  RH  049%=      5-min Rain = 0
KAD1 160340Z 00011KT 20/09 A2996 RMK A01 T01950088  RH  050%=      5-min Rain = 0
KAD1 160341Z 01012KT 19/09 A2996 RMK A01 T01940088  RH  050%=      5-min Rain = 0
KAD1 160342Z 36013KT 19/09 A2997 RMK A01 T01930091  RH  052%=      5-min Rain = 0
KAD1 160343Z 35012KT 19/09 A2997 RMK A01 T01910092  RH  052%=      5-min Rain = 0
KAD1 160344Z 00013KT 19/09 A2997 RMK A01 T01900094  RH  054%=      5-min Rain = 0
KAD1 160345Z 00014KT 19/09 A2997 RMK A01 T01880094  RH  054%=      5-min Rain = 0
KAD1 160346Z 00013KT 19/10 A2997 RMK A01 T01870096  RH  055%=      5-min Rain = 0
KAD1 160347Z 01014KT 19/10 A2997 RMK A01 T01860096  RH  056%=      5-min Rain = 0
KAD1 160348Z 01015KT 19/10 A2997 RMK A01 T01850097  RH  057%=      5-min Rain = 0
KAD1 160349Z 01015KT 18/10 A2997 RMK A01 T01840097  RH  057%=      5-min Rain = 0
KAD1 160350Z 01014KT 18/10 A2997 RMK A01 T01830099  RH  058%=      5-min Rain = 0
KAD1 160351Z 01013KT 18/10 A2998 RMK A01 T01820100  RH  059%=      5-min Rain = 0
KAD1 160352Z 01015KT 18/10 A2998 RMK A01 T01800101  RH  060%=      5-min Rain = 0
KAD1 160353Z 00012KT 18/10 A2998 RMK A01 T01790102  RH  061%=      5-min Rain = 0
KAD1 160354Z 00012KT 18/10 A2998 RMK A01 T01780103  RH  062%=      5-min Rain = 0
KAD1 160355Z 01012KT 18/11 A2998 RMK A01 T01760105  RH  063%=      5-min Rain = 0
KAD1 160356Z 01013KT 17/11 A2999 RMK A01 T01740105  RH  064%=      5-min Rain = 0
KAD1 160357Z 01012KT 17/11 A2999 RMK A01 T01730105  RH  064%=      5-min Rain = 0
KAD1 160358Z 00012KT 17/11 A2999 RMK A01 T01730106  RH  065%=      5-min Rain = 0
KAD1 160359Z 01013KT 17/11 A2998 RMK A01 T01720106  RH  065%=      5-min Rain = 0
KAD1 160400Z 01013KT 17/11 A2998 RMK A01 T01710107  RH  066%=      5-min Rain = 0
KAD1 160401Z 01014KT 17/11 A2998 RMK A01 T01710107  RH  066%=      5-min Rain = 0
KAD1 160402Z 00014G19KT 17/11 A2998 RMK A01 T01700107  RH  066%=      5-min Rain = 0
KAD1 160403Z 01014KT 17/11 A2998 RMK A01 T01700107  RH  066%=      5-min Rain = 0
KAD1 160404Z 00012KT 17/11 A2998 RMK A01 T01690107  RH  067%=      5-min Rain = 0
KAD1 160405Z 00010KT 17/11 A2998 RMK A01 T01690108  RH  067%=      5-min Rain = 0
KAD1 160406Z 36011KT 17/11 A2998 RMK A01 T01680108  RH  068%=      5-min Rain = 0
KAD1 160407Z 36010KT 17/11 A2998 RMK A01 T01670108  RH  068%=      5-min Rain = 0
KAD1 160408Z 36011KT 17/11 A2998 RMK A01 T01680107  RH  067%=      5-min Rain = 0
KAD1 160409Z 35009KT 17/11 A2999 RMK A01 T01680107  RH  067%=      5-min Rain = 0
KAD1 160410Z 35010KT 17/11 A2999 RMK A01 T01680108  RH  068%=      5-min Rain = 0
KAD1 160411Z 35011KT 17/11 A2999 RMK A01 T01680108  RH  068%=      5-min Rain = 0
KAD1 160412Z 35010KT 17/11 A2999 RMK A01 T01670108  RH  068%=      5-min Rain = 0
KAD1 160413Z 36009KT 17/11 A2998 RMK A01 T01680109  RH  068%=      5-min Rain = 0
KAD1 160414Z 35007KT 17/11 A2998 RMK A01 T01670109  RH  069%=      5-min Rain = 0
KAD1 160415Z 35010KT 17/11 A2998 RMK A01 T01670110  RH  069%=      5-min Rain = 0
KAD1 160416Z 35011KT 17/11 A2998 RMK A01 T01660108  RH  068%=      5-min Rain = 0
KAD1 160417Z 34009KT 17/11 A2998 RMK A01 T01670108  RH  068%=      5-min Rain = 0
KAD1 160418Z 34008KT 17/11 A2998 RMK A01 T01670110  RH  069%=      5-min Rain = 0
KAD1 160419Z 34010KT 17/11 A2998 RMK A01 T01670109  RH  069%=      5-min Rain = 0
KAD1 160420Z 34009KT 17/11 A2998 RMK A01 T01670109  RH  069%=      5-min Rain = 0
KAD1 160421Z 34007KT 17/11 A2998 RMK A01 T01660110  RH  069%=      5-min Rain = 0
KAD1 160422Z 35007KT 17/11 A2998 RMK A01 T01660111  RH  070%=      5-min Rain = 0
KAD1 160423Z 34007KT 17/11 A2998 RMK A01 T01650110  RH  070%=      5-min Rain = 0
KAD1 160424Z 34006KT 17/11 A2998 RMK A01 T01650111  RH  070%=      5-min Rain = 0
KAD1 160425Z 34007KT 17/11 A2998 RMK A01 T01650111  RH  071%=      5-min Rain = 0
KAD1 160426Z 34007KT 17/11 A2998 RMK A01 T01650111  RH  071%=      5-min Rain = 0
KAD1 160427Z 34007KT 16/11 A2999 RMK A01 T01640111  RH  071%=      5-min Rain = 0
KAD1 160428Z 34007KT 16/11 A2999 RMK A01 T01640112  RH  071%=      5-min Rain = 0
KAD1 160429Z 34007KT 16/11 A2999 RMK A01 T01640113  RH  072%=      5-min Rain = 0
KAD1 160430Z 34007KT 16/11 A2998 RMK A01 T01640113  RH  072%=      5-min Rain = 0
KAD1 160431Z 34006KT 16/11 A2998 RMK A01 T01630113  RH  072%=      5-min Rain = 0
KAD1 160432Z 33006KT 16/11 A2998 RMK A01 T01630113  RH  072%=      5-min Rain = 0
KAD1 160433Z 33006KT 16/11 A2998 RMK A01 T01620114  RH  073%=      5-min Rain = 0
KAD1 160434Z 33006KT 16/11 A2998 RMK A01 T01620114  RH  073%=      5-min Rain = 0
KAD1 160435Z 33006KT 16/11 A2998 RMK A01 T01620114  RH  073%=      5-min Rain = 0
KAD1 160436Z 32006KT 16/12 A2998 RMK A01 T01620115  RH  074%=      5-min Rain = 0
KAD1 160437Z 32006KT 16/12 A2998 RMK A01 T01610116  RH  074%=      5-min Rain = 0
KAD1 160438Z 32007KT 16/12 A2998 RMK A01 T01600116  RH  075%=      5-min Rain = 0
KAD1 160439Z 32008KT 16/12 A2998 RMK A01 T01600117  RH  075%=      5-min Rain = 0
KAD1 160440Z 31007KT 16/12 A2997 RMK A01 T01590117  RH  076%=      5-min Rain = 0
KAD1 160441Z 32007KT 16/12 A2997 RMK A01 T01590117  RH  076%=      5-min Rain = 0
KAD1 160442Z 32006KT 16/12 A2997 RMK A01 T01580117  RH  076%=      5-min Rain = 0
KAD1 160443Z 32007KT 16/12 A2997 RMK A01 T01580117  RH  077%=      5-min Rain = 0
KAD1 160444Z 32008KT 16/12 A2997 RMK A01 T01580118  RH  077%=      5-min Rain = 0
KAD1 160445Z 32007KT 16/12 A2997 RMK A01 T01580117  RH  077%=      5-min Rain = 0
KAD1 160446Z 32008KT 16/12 A2998 RMK A01 T01580118  RH  077%=      5-min Rain = 0
KAD1 160447Z 32007KT 16/12 A2998 RMK A01 T01580118  RH  077%=      5-min Rain = 0
KAD1 160448Z 32008KT 16/12 A2998 RMK A01 T01580118  RH  077%=      5-min Rain = 0
KAD1 160449Z 32008KT 16/12 A2998 RMK A01 T01580119  RH  077%=      5-min Rain = 0
KAD1 160450Z 32006KT 16/12 A2998 RMK A01 T01580119  RH  078%=      5-min Rain = 0
KAD1 160451Z 32007KT 16/12 A2997 RMK A01 T01580118  RH  077%=      5-min Rain = 0
KAD1 160452Z 32007KT 16/12 A2998 RMK A01 T01570118  RH  077%=      5-min Rain = 0
KAD1 160453Z 31007KT 16/12 A2998 RMK A01 T01580119  RH  078%=      5-min Rain = 0
KAD1 160454Z 31008KT 16/12 A2998 RMK A01 T01570119  RH  078%=      5-min Rain = 0
KAD1 160455Z 31008KT 16/12 A2998 RMK A01 T01570120  RH  079%=      5-min Rain = 0
KAD1 160456Z 31008KT 16/12 A2998 RMK A01 T01570121  RH  079%=      5-min Rain = 0
KAD1 160457Z 30007KT 16/12 A2998 RMK A01 T01560121  RH  080%=      5-min Rain = 0
KAD1 160458Z 30008KT 16/12 A2998 RMK A01 T01560122  RH  080%=      5-min Rain = 0
KAD1 160459Z 29008KT 16/12 A2998 RMK A01 T01560121  RH  080%=      5-min Rain = 0

Page generated in 0.1891 seconds.